<?xml version="1.0" encoding="UTF-8" standalone="no" ?>
<gpx xmlns="http://www.topografix.com/GPX/1/1" xmlns:xsi="http://www.w3.org/2001/XMLSchema-instance" xsi:schemaLocation="http://www.topografix.com/GPX/1/1 http://www.topografix.com/GPX/1/1/gpx.xsd" version="1.1" creator="VisuGPX - https://www.visugpx.com">
  <metadata>
    <name>tour france</name>
  </metadata>
  <trk>
    <name><![CDATA[SES_4]]></name>
    <extensions>
      <line xmlns="http://www.topografix.com/GPX/gpx_style/0/2">
        <color>880088</color>
        <width>4</width>
      </line>
    </extensions>
    <trkseg>
      <trkpt lat="44.56498" lon="2.27182">
        <ele>344.577</ele>
        <time>2016-09-14T14:04:34Z</time>
        <extensions>
          <visugpx:TrkExtension xmlns:visugpx="https://www.visugpx.com/editgpx/">
            <visugpx:node>8</visugpx:node>
            </visugpx:TrkExtension>
        </extensions>
      </trkpt>
      <trkpt lat="44.56307" lon="2.26553">
        <ele>356.361</ele>
        <time>2016-09-14T14:04:54Z</time>
      </trkpt>
      <trkpt lat="44.56333" lon="2.26324">
        <ele>351.627</ele>
        <time>2016-09-14T14:05:14Z</time>
      </trkpt>
      <trkpt lat="44.56436" lon="2.2603">
        <ele>317.308</ele>
        <time>2016-09-14T14:05:34Z</time>
      </trkpt>
      <trkpt lat="44.56466" lon="2.25875">
        <ele>306.623</ele>
        <time>2016-09-14T14:05:54Z</time>
      </trkpt>
      <trkpt lat="44.5646" lon="2.25822">
        <ele>304.76</ele>
        <time>2016-09-14T14:06:14Z</time>
      </trkpt>
      <trkpt lat="44.56471" lon="2.25772">
        <ele>303.519</ele>
        <time>2016-09-14T14:06:34Z</time>
      </trkpt>
      <trkpt lat="44.56463" lon="2.25646">
        <ele>283.768</ele>
        <time>2016-09-14T14:06:54Z</time>
      </trkpt>
      <trkpt lat="44.56501" lon="2.25618">
        <ele>277.554</ele>
        <time>2016-09-14T14:07:14Z</time>
      </trkpt>
      <trkpt lat="44.56509" lon="2.25539">
        <ele>268.985</ele>
        <time>2016-09-14T14:07:34Z</time>
      </trkpt>
      <trkpt lat="44.56462" lon="2.25455">
        <ele>262.688</ele>
        <time>2016-09-14T14:07:54Z</time>
      </trkpt>
      <trkpt lat="44.5646" lon="2.25337">
        <ele>252.637</ele>
        <time>2016-09-14T14:08:14Z</time>
      </trkpt>
      <trkpt lat="44.56439" lon="2.25296">
        <ele>248.451</ele>
        <time>2016-09-14T14:08:34Z</time>
      </trkpt>
      <trkpt lat="44.56435" lon="2.25252">
        <ele>242.5</ele>
      </trkpt>
      <trkpt lat="44.56437" lon="2.25195">
        <ele>236.301</ele>
        <time>2016-09-14T14:08:54Z</time>
      </trkpt>
      <trkpt lat="44.56464" lon="2.25195">
        <ele>237</ele>
      </trkpt>
      <trkpt lat="44.56482" lon="2.25187">
        <ele>233.7</ele>
      </trkpt>
      <trkpt lat="44.56507" lon="2.25169">
        <ele>225.9</ele>
      </trkpt>
      <trkpt lat="44.56514" lon="2.25172">
        <ele>226.611</ele>
        <time>2016-09-14T14:09:14Z</time>
      </trkpt>
      <trkpt lat="44.5642" lon="2.25068">
        <ele>210</ele>
      </trkpt>
      <trkpt lat="44.56414" lon="2.25065">
        <ele>209.1</ele>
        <time>2016-09-14T14:09:34Z</time>
      </trkpt>
      <trkpt lat="44.56361" lon="2.2507">
        <ele>205.5</ele>
      </trkpt>
      <trkpt lat="44.56351" lon="2.25054">
        <ele>204.6</ele>
        <time>2016-09-14T14:09:54Z</time>
      </trkpt>
      <trkpt lat="44.56373" lon="2.2494">
        <ele>206.738</ele>
        <time>2021-01-03T00:05:40Z</time>
      </trkpt>
      <trkpt lat="44.56378" lon="2.24814">
        <ele>206</ele>
        <time>2016-09-14T14:10:14Z</time>
      </trkpt>
      <trkpt lat="44.5643" lon="2.2483">
        <ele>212.016</ele>
        <time>2016-09-14T14:10:34Z</time>
      </trkpt>
      <trkpt lat="44.56433" lon="2.24788">
        <ele>214.882</ele>
        <time>2016-09-14T14:10:54Z</time>
      </trkpt>
      <trkpt lat="44.56403" lon="2.24674">
        <ele>221.4</ele>
        <time>2016-09-14T14:11:14Z</time>
      </trkpt>
      <trkpt lat="44.5646" lon="2.24603">
        <ele>232.416</ele>
        <time>2016-09-14T14:11:34Z</time>
      </trkpt>
      <trkpt lat="44.56495" lon="2.24618">
        <ele>242.055</ele>
        <time>2016-09-14T14:11:54Z</time>
      </trkpt>
      <trkpt lat="44.56527" lon="2.24674">
        <ele>247.761</ele>
        <time>2016-09-14T14:12:14Z</time>
      </trkpt>
      <trkpt lat="44.5659" lon="2.24646">
        <ele>262.621</ele>
        <time>2016-09-14T14:12:34Z</time>
      </trkpt>
      <trkpt lat="44.56607" lon="2.24584">
        <ele>266.1</ele>
        <time>2016-09-14T14:12:54Z</time>
      </trkpt>
      <trkpt lat="44.56648" lon="2.24564">
        <ele>273.7</ele>
      </trkpt>
      <trkpt lat="44.56697" lon="2.24557">
        <ele>283.4</ele>
        <time>2016-09-14T14:13:14Z</time>
      </trkpt>
      <trkpt lat="44.56705" lon="2.24565">
        <ele>285.2</ele>
      </trkpt>
      <trkpt lat="44.56713" lon="2.2461">
        <ele>290.3</ele>
        <time>2016-09-14T14:13:34Z</time>
      </trkpt>
      <trkpt lat="44.5676" lon="2.24619">
        <ele>292.3</ele>
      </trkpt>
      <trkpt lat="44.56813" lon="2.2465">
        <ele>296.6</ele>
      </trkpt>
      <trkpt lat="44.56865" lon="2.24663">
        <ele>295.129</ele>
        <time>2016-09-14T14:13:54Z</time>
      </trkpt>
      <trkpt lat="44.5694" lon="2.24697">
        <ele>287.248</ele>
        <time>2016-09-14T14:14:14Z</time>
      </trkpt>
      <trkpt lat="44.57082" lon="2.2468">
        <ele>278.187</ele>
        <time>2016-09-14T14:14:34Z</time>
      </trkpt>
      <trkpt lat="44.57144" lon="2.24641">
        <ele>281</ele>
      </trkpt>
      <trkpt lat="44.57203" lon="2.24597">
        <ele>282.843</ele>
        <time>2016-09-14T14:14:54Z</time>
      </trkpt>
      <trkpt lat="44.57282" lon="2.2457">
        <ele>292.1</ele>
        <time>2016-09-14T14:15:14Z</time>
      </trkpt>
      <trkpt lat="44.5727" lon="2.24554">
        <ele>293.847</ele>
        <time>2016-09-14T14:15:34Z</time>
      </trkpt>
      <trkpt lat="44.573" lon="2.2454">
        <ele>298.3</ele>
        <time>2016-09-14T14:15:54Z</time>
      </trkpt>
      <trkpt lat="44.57338" lon="2.24453">
        <ele>305.566</ele>
        <time>2016-09-14T14:16:14Z</time>
      </trkpt>
      <trkpt lat="44.57325" lon="2.24376">
        <ele>313.629</ele>
        <time>2019-03-30T16:35:01Z</time>
      </trkpt>
      <trkpt lat="44.57404" lon="2.24222">
        <ele>329.9</ele>
      </trkpt>
      <trkpt lat="44.57477" lon="2.2412">
        <ele>342.321</ele>
        <time>2016-09-14T14:16:54Z</time>
      </trkpt>
      <trkpt lat="44.57488" lon="2.24108">
        <ele>338.9</ele>
      </trkpt>
      <trkpt lat="44.57508" lon="2.24051">
        <ele>345.1</ele>
      </trkpt>
      <trkpt lat="44.57499" lon="2.2404">
        <ele>346.1</ele>
        <time>2016-09-14T14:17:14Z</time>
      </trkpt>
      <trkpt lat="44.57501" lon="2.24025">
        <ele>347</ele>
        <time>2016-09-14T14:17:34Z</time>
      </trkpt>
      <trkpt lat="44.57548" lon="2.2399">
        <ele>350.2</ele>
        <time>2019-03-30T16:36:21Z</time>
      </trkpt>
      <trkpt lat="44.57588" lon="2.23978">
        <ele>353</ele>
      </trkpt>
      <trkpt lat="44.57632" lon="2.23972">
        <ele>353.348</ele>
        <time>2019-03-30T16:36:41Z</time>
      </trkpt>
      <trkpt lat="44.57674" lon="2.23866">
        <ele>350.987</ele>
        <time>2019-03-30T16:37:01Z</time>
      </trkpt>
      <trkpt lat="44.57687" lon="2.23722">
        <ele>350.083</ele>
        <time>2016-09-14T14:18:54Z</time>
      </trkpt>
      <trkpt lat="44.57743" lon="2.23535">
        <ele>350.934</ele>
        <time>2019-03-30T16:37:41Z</time>
      </trkpt>
      <trkpt lat="44.57856" lon="2.23263">
        <ele>332.087</ele>
        <time>2016-09-14T14:19:14Z</time>
      </trkpt>
      <trkpt lat="44.57969" lon="2.23092">
        <ele>329.356</ele>
        <time>2019-03-30T16:38:21Z</time>
      </trkpt>
      <trkpt lat="44.58053" lon="2.22845">
        <ele>325.252</ele>
        <time>2019-03-30T16:38:41Z</time>
      </trkpt>
      <trkpt lat="44.58158" lon="2.22838">
        <ele>310.553</ele>
        <time>2016-09-14T14:20:14Z</time>
      </trkpt>
      <trkpt lat="44.58196" lon="2.22775">
        <ele>303.908</ele>
        <time>2021-01-03T00:16:40Z</time>
      </trkpt>
      <trkpt lat="44.58215" lon="2.22671">
        <ele>298.9</ele>
        <time>2021-01-03T00:17:00Z</time>
      </trkpt>
      <trkpt lat="44.58242" lon="2.22629">
        <ele>292.3</ele>
      </trkpt>
      <trkpt lat="44.58267" lon="2.22589">
        <ele>283.6</ele>
        <time>2021-01-03T00:17:20Z</time>
      </trkpt>
      <trkpt lat="44.5827" lon="2.22541">
        <ele>277.4</ele>
      </trkpt>
      <trkpt lat="44.58264" lon="2.22488">
        <ele>270.3</ele>
        <time>2021-01-03T00:17:40Z</time>
      </trkpt>
      <trkpt lat="44.58264" lon="2.22443">
        <ele>260.1</ele>
        <time>2021-01-03T00:18:00Z</time>
      </trkpt>
      <trkpt lat="44.58298" lon="2.22437">
        <ele>249.2</ele>
        <time>2021-01-03T00:18:20Z</time>
      </trkpt>
      <trkpt lat="44.58322" lon="2.2247">
        <ele>243.9</ele>
      </trkpt>
      <trkpt lat="44.58343" lon="2.22513">
        <ele>243.4</ele>
      </trkpt>
      <trkpt lat="44.5838" lon="2.22577">
        <ele>245.922</ele>
        <time>2021-01-03T00:18:40Z</time>
      </trkpt>
      <trkpt lat="44.58418" lon="2.22672">
        <ele>220.1</ele>
        <time>2021-01-03T00:19:00Z</time>
      </trkpt>
      <trkpt lat="44.58467" lon="2.22787">
        <ele>206.426</ele>
        <time>2021-01-03T00:19:20Z</time>
      </trkpt>
      <trkpt lat="44.58484" lon="2.22834">
        <ele>190.3</ele>
      </trkpt>
      <trkpt lat="44.58476" lon="2.22875">
        <ele>188.2</ele>
        <time>2021-01-03T00:19:40Z</time>
      </trkpt>
      <trkpt lat="44.58508" lon="2.22856">
        <ele>187.8</ele>
        <time>2021-01-03T00:20:00Z</time>
      </trkpt>
      <trkpt lat="44.58691" lon="2.22961">
        <ele>186.1</ele>
        <time>2016-09-14T14:23:34Z</time>
      </trkpt>
      <trkpt lat="44.58729" lon="2.23025">
        <ele>186.221</ele>
        <time>2016-09-14T14:23:54Z</time>
      </trkpt>
      <trkpt lat="44.5875" lon="2.231">
        <ele>184.6</ele>
        <time>2016-09-14T14:24:14Z</time>
      </trkpt>
      <trkpt lat="44.58785" lon="2.23104">
        <ele>184</ele>
        <time>2016-09-14T14:24:34Z</time>
      </trkpt>
      <trkpt lat="44.5884" lon="2.23152">
        <ele>185.2</ele>
      </trkpt>
      <trkpt lat="44.58902" lon="2.23191">
        <ele>189.4</ele>
        <time>2016-09-14T14:24:54Z</time>
      </trkpt>
      <trkpt lat="44.58929" lon="2.2323">
        <ele>191.8</ele>
        <time>2016-09-14T14:25:14Z</time>
      </trkpt>
      <trkpt lat="44.59026" lon="2.23239">
        <ele>199.9</ele>
        <time>2016-09-14T14:25:34Z</time>
      </trkpt>
      <trkpt lat="44.59101" lon="2.2322">
        <ele>207.6</ele>
        <time>2016-09-14T14:25:54Z</time>
      </trkpt>
      <trkpt lat="44.59118" lon="2.23179">
        <ele>212.3</ele>
        <time>2016-09-14T14:26:14Z</time>
      </trkpt>
      <trkpt lat="44.59154" lon="2.23126">
        <ele>215.8</ele>
        <time>2016-09-14T14:26:34Z</time>
      </trkpt>
      <trkpt lat="44.59122" lon="2.23037">
        <ele>211.5</ele>
        <time>2016-09-14T14:26:54Z</time>
      </trkpt>
      <trkpt lat="44.59162" lon="2.22938">
        <ele>207.8</ele>
      </trkpt>
      <trkpt lat="44.59206" lon="2.22832">
        <ele>204.066</ele>
        <time>2016-09-14T14:27:14Z</time>
      </trkpt>
      <trkpt lat="44.59472" lon="2.22666">
        <ele>194.029</ele>
        <time>2016-09-14T14:27:34Z</time>
      </trkpt>
      <trkpt lat="44.59553" lon="2.22658">
        <ele>199.4</ele>
      </trkpt>
      <trkpt lat="44.59631" lon="2.22681">
        <ele>215.121</ele>
        <time>2016-09-14T14:27:54Z</time>
      </trkpt>
      <trkpt lat="44.59701" lon="2.22615">
        <ele>231.308</ele>
        <time>2016-09-14T14:28:14Z</time>
      </trkpt>
      <trkpt lat="44.60017" lon="2.22731">
        <ele>274.022</ele>
        <time>2016-09-14T14:29:54Z</time>
      </trkpt>
      <trkpt lat="44.60245" lon="2.2269">
        <ele>300.659</ele>
        <time>2016-09-14T14:30:14Z</time>
      </trkpt>
      <trkpt lat="44.60379" lon="2.22652">
        <ele>319.6</ele>
      </trkpt>
      <trkpt lat="44.60413" lon="2.22651">
        <ele>324.2</ele>
      </trkpt>
      <trkpt lat="44.60454" lon="2.22647">
        <ele>329.147</ele>
        <time>2016-09-14T14:30:54Z</time>
      </trkpt>
      <trkpt lat="44.6053" lon="2.2259">
        <ele>331.2</ele>
      </trkpt>
      <trkpt lat="44.60546" lon="2.22565">
        <ele>332.4</ele>
        <time>2016-09-14T14:31:14Z</time>
      </trkpt>
      <trkpt lat="44.60573" lon="2.22548">
        <ele>331.314</ele>
        <time>2016-09-14T14:31:34Z</time>
      </trkpt>
      <trkpt lat="44.60868" lon="2.22428">
        <ele>322.657</ele>
        <time>2016-09-14T14:31:54Z</time>
      </trkpt>
      <trkpt lat="44.60868" lon="2.22428">
        <ele>322.657</ele>
        <time>2016-09-14T14:31:54Z</time>
      </trkpt>
      <trkpt lat="44.61013" lon="2.22347">
        <ele>318.296</ele>
        <time>2016-09-14T14:32:14Z</time>
      </trkpt>
      <trkpt lat="44.61027" lon="2.22276">
        <ele>319.2</ele>
        <time>2016-09-14T14:32:34Z</time>
      </trkpt>
      <trkpt lat="44.61031" lon="2.22224">
        <ele>319.1</ele>
      </trkpt>
      <trkpt lat="44.61044" lon="2.22158">
        <ele>319</ele>
        <time>2016-09-14T14:32:54Z</time>
      </trkpt>
      <trkpt lat="44.61155" lon="2.2195">
        <ele>322.9</ele>
        <time>2016-09-14T14:33:14Z</time>
      </trkpt>
      <trkpt lat="44.61249" lon="2.2181">
        <ele>327.808</ele>
        <time>2016-09-14T14:33:34Z</time>
      </trkpt>
      <trkpt lat="44.61277" lon="2.21761">
        <ele>327.4</ele>
      </trkpt>
      <trkpt lat="44.61298" lon="2.21621">
        <ele>326.6</ele>
        <time>2016-09-14T14:33:54Z</time>
      </trkpt>
      <trkpt lat="44.61311" lon="2.21583">
        <ele>329.495</ele>
        <time>2019-03-30T16:53:01Z</time>
      </trkpt>
      <trkpt lat="44.61307" lon="2.21425">
        <ele>335.454</ele>
        <time>2019-03-30T16:53:21Z</time>
      </trkpt>
      <trkpt lat="44.61397" lon="2.21267">
        <ele>340.933</ele>
        <time>2016-09-14T14:35:14Z</time>
      </trkpt>
      <trkpt lat="44.61403" lon="2.21192">
        <ele>347.199</ele>
        <time>2016-09-14T14:35:34Z</time>
      </trkpt>
      <trkpt lat="44.61441" lon="2.21089">
        <ele>350.48</ele>
        <time>2016-09-14T14:35:54Z</time>
      </trkpt>
      <trkpt lat="44.61481" lon="2.21014">
        <ele>358.883</ele>
        <time>2019-03-30T16:54:41Z</time>
      </trkpt>
      <trkpt lat="44.61492" lon="2.20957">
        <ele>361.312</ele>
        <time>2019-03-30T16:55:01Z</time>
      </trkpt>
      <trkpt lat="44.61567" lon="2.20802">
        <ele>374.114</ele>
        <time>2019-03-30T16:55:21Z</time>
      </trkpt>
      <trkpt lat="44.6159" lon="2.20701">
        <ele>384.054</ele>
        <time>2019-03-30T16:55:41Z</time>
      </trkpt>
      <trkpt lat="44.6166" lon="2.20474">
        <ele>395.909</ele>
        <time>2019-03-30T16:56:01Z</time>
      </trkpt>
      <trkpt lat="44.61672" lon="2.20355">
        <ele>396.608</ele>
        <time>2016-09-14T14:38:14Z</time>
      </trkpt>
      <trkpt lat="44.61679" lon="2.20272">
        <ele>394.157</ele>
        <time>2016-09-14T14:38:34Z</time>
      </trkpt>
      <trkpt lat="44.61685" lon="2.20139">
        <ele>400.574</ele>
        <time>2019-03-30T16:57:01Z</time>
      </trkpt>
      <trkpt lat="44.61665" lon="2.20023">
        <ele>394.763</ele>
        <time>2019-03-30T16:57:21Z</time>
      </trkpt>
      <trkpt lat="44.61641" lon="2.19967">
        <ele>399.972</ele>
        <time>2016-09-14T14:39:54Z</time>
      </trkpt>
      <trkpt lat="44.61576" lon="2.1991">
        <ele>403.838</ele>
        <time>2019-03-30T16:58:01Z</time>
      </trkpt>
      <trkpt lat="44.61637" lon="2.19759">
        <ele>405.969</ele>
        <time>2019-03-30T16:58:21Z</time>
      </trkpt>
      <trkpt lat="44.61632" lon="2.19675">
        <ele>410.442</ele>
        <time>2019-03-30T16:58:41Z</time>
      </trkpt>
      <trkpt lat="44.61674" lon="2.19614">
        <ele>403.831</ele>
        <time>2019-03-30T16:59:01Z</time>
      </trkpt>
      <trkpt lat="44.61693" lon="2.1954">
        <ele>405.277</ele>
        <time>2019-03-30T16:59:21Z</time>
      </trkpt>
      <trkpt lat="44.617" lon="2.19274">
        <ele>397.361</ele>
        <time>2019-03-30T16:59:41Z</time>
      </trkpt>
      <trkpt lat="44.61765" lon="2.19222">
        <ele>400.727</ele>
        <time>2019-03-30T17:00:01Z</time>
      </trkpt>
      <trkpt lat="44.61818" lon="2.19111">
        <ele>414.008</ele>
        <time>2019-03-30T17:00:21Z</time>
      </trkpt>
      <trkpt lat="44.61833" lon="2.1906">
        <ele>416.033</ele>
        <time>2019-03-30T10:45:25Z</time>
      </trkpt>
      <trkpt lat="44.61763" lon="2.18981">
        <ele>409.389</ele>
        <time>2016-09-15T05:41:43Z</time>
      </trkpt>
      <trkpt lat="44.61696" lon="2.18858">
        <ele>393.328</ele>
        <time>2019-03-30T10:46:05Z</time>
      </trkpt>
      <trkpt lat="44.61734" lon="2.1879">
        <ele>392.814</ele>
        <time>2019-03-30T10:46:25Z</time>
      </trkpt>
      <trkpt lat="44.61851" lon="2.1878">
        <ele>374.345</ele>
        <time>2019-03-30T10:46:45Z</time>
      </trkpt>
      <trkpt lat="44.61898" lon="2.18725">
        <ele>366.278</ele>
        <time>2019-03-30T10:47:05Z</time>
      </trkpt>
      <trkpt lat="44.61914" lon="2.18647">
        <ele>363.167</ele>
        <time>2019-03-30T10:47:25Z</time>
      </trkpt>
      <trkpt lat="44.61918" lon="2.18289">
        <ele>375.231</ele>
        <time>2019-03-30T10:47:45Z</time>
      </trkpt>
      <trkpt lat="44.61931" lon="2.18203">
        <ele>379.261</ele>
        <time>2019-03-30T10:48:05Z</time>
      </trkpt>
      <trkpt lat="44.61903" lon="2.18159">
        <ele>380.107</ele>
        <time>2019-03-30T10:48:25Z</time>
      </trkpt>
      <trkpt lat="44.61811" lon="2.18142">
        <ele>385.308</ele>
        <time>2016-09-15T05:44:43Z</time>
      </trkpt>
      <trkpt lat="44.61764" lon="2.18114">
        <ele>386.689</ele>
        <time>2016-09-15T05:45:03Z</time>
      </trkpt>
      <trkpt lat="44.6168" lon="2.18035">
        <ele>388.056</ele>
        <time>2019-03-30T10:49:25Z</time>
      </trkpt>
      <trkpt lat="44.61692" lon="2.17983">
        <ele>392.125</ele>
        <time>2016-09-15T05:45:43Z</time>
      </trkpt>
      <trkpt lat="44.61734" lon="2.17877">
        <ele>389.664</ele>
        <time>2019-03-30T10:50:05Z</time>
      </trkpt>
      <trkpt lat="44.61789" lon="2.17783">
        <ele>379.73</ele>
        <time>2019-03-30T10:50:25Z</time>
      </trkpt>
      <trkpt lat="44.61836" lon="2.17777">
        <ele>375.031</ele>
        <time>2019-03-30T10:50:45Z</time>
      </trkpt>
      <trkpt lat="44.61867" lon="2.17732">
        <ele>375.354</ele>
        <time>2019-03-30T10:51:05Z</time>
      </trkpt>
      <trkpt lat="44.61868" lon="2.17694">
        <ele>376.313</ele>
        <time>2019-03-30T10:51:25Z</time>
      </trkpt>
      <trkpt lat="44.6189" lon="2.17668">
        <ele>377.996</ele>
        <time>2019-03-30T10:51:45Z</time>
      </trkpt>
      <trkpt lat="44.61899" lon="2.17614">
        <ele>377.331</ele>
        <time>2016-09-15T05:47:43Z</time>
      </trkpt>
      <trkpt lat="44.6193" lon="2.1759">
        <ele>376.324</ele>
        <time>2019-03-30T10:52:25Z</time>
      </trkpt>
      <trkpt lat="44.61999" lon="2.17428">
        <ele>367.808</ele>
        <time>2019-03-30T10:52:45Z</time>
      </trkpt>
      <trkpt lat="44.61921" lon="2.17187">
        <ele>358.045</ele>
        <time>2016-09-15T05:49:03Z</time>
      </trkpt>
      <trkpt lat="44.61907" lon="2.17054">
        <ele>351.462</ele>
        <time>2019-03-30T10:53:25Z</time>
      </trkpt>
      <trkpt lat="44.61928" lon="2.16854">
        <ele>345.811</ele>
        <time>2019-03-30T10:53:45Z</time>
      </trkpt>
      <trkpt lat="44.61783" lon="2.16814">
        <ele>341.52</ele>
        <time>2019-03-30T10:54:05Z</time>
      </trkpt>
      <trkpt lat="44.61693" lon="2.1686">
        <ele>341.126</ele>
        <time>2019-03-30T10:54:25Z</time>
      </trkpt>
      <trkpt lat="44.61669" lon="2.16664">
        <ele>324.657</ele>
        <time>2016-09-15T05:51:03Z</time>
      </trkpt>
      <trkpt lat="44.61589" lon="2.16397">
        <ele>287.59</ele>
        <time>2019-03-30T10:55:05Z</time>
      </trkpt>
      <trkpt lat="44.61462" lon="2.16391">
        <ele>284.399</ele>
        <time>2016-09-15T05:52:23Z</time>
      </trkpt>
      <trkpt lat="44.61392" lon="2.16435">
        <ele>281.168</ele>
        <time>2019-03-30T10:55:45Z</time>
      </trkpt>
      <trkpt lat="44.61375" lon="2.16359">
        <ele>277.442</ele>
        <time>2019-03-30T10:56:05Z</time>
      </trkpt>
      <trkpt lat="44.61401" lon="2.16269">
        <ele>276.626</ele>
        <time>2016-09-15T05:53:03Z</time>
      </trkpt>
      <trkpt lat="44.61498" lon="2.16261">
        <ele>285.108</ele>
        <time>2019-03-30T10:56:45Z</time>
      </trkpt>
      <trkpt lat="44.61589" lon="2.16145">
        <ele>285.122</ele>
        <time>2019-03-30T10:57:05Z</time>
      </trkpt>
      <trkpt lat="44.61642" lon="2.16247">
        <ele>292.179</ele>
        <time>2019-03-30T10:57:25Z</time>
      </trkpt>
      <trkpt lat="44.61793" lon="2.16093">
        <ele>286.068</ele>
        <time>2019-03-30T10:57:45Z</time>
      </trkpt>
      <trkpt lat="44.618" lon="2.16057">
        <ele>285.627</ele>
        <time>2019-03-30T10:58:05Z</time>
      </trkpt>
      <trkpt lat="44.61958" lon="2.15933">
        <ele>280.813</ele>
        <time>2019-03-30T10:58:25Z</time>
      </trkpt>
      <trkpt lat="44.62018" lon="2.15634">
        <ele>285.574</ele>
        <time>2019-03-30T10:58:45Z</time>
      </trkpt>
      <trkpt lat="44.62018" lon="2.15311">
        <ele>285.8</ele>
        <time>2016-09-15T05:55:43Z</time>
      </trkpt>
      <trkpt lat="44.62133" lon="2.1507">
        <ele>281.246</ele>
        <time>2019-03-30T10:59:25Z</time>
      </trkpt>
      <trkpt lat="44.6213" lon="2.15023">
        <ele>275.4</ele>
      </trkpt>
      <trkpt lat="44.62175" lon="2.14789">
        <ele>260.1</ele>
      </trkpt>
      <trkpt lat="44.62193" lon="2.14765">
        <ele>259</ele>
        <time>2019-03-30T10:59:45Z</time>
      </trkpt>
      <trkpt lat="44.62225" lon="2.14809">
        <ele>271.876</ele>
        <time>2019-03-30T11:00:05Z</time>
      </trkpt>
      <trkpt lat="44.62287" lon="2.14817">
        <ele>277.313</ele>
        <time>2019-03-30T11:00:25Z</time>
      </trkpt>
      <trkpt lat="44.62424" lon="2.14949">
        <ele>277.408</ele>
        <time>2016-09-15T05:57:43Z</time>
      </trkpt>
      <trkpt lat="44.62518" lon="2.14976">
        <ele>280.2</ele>
      </trkpt>
      <trkpt lat="44.62575" lon="2.15001">
        <ele>279.9</ele>
        <time>2016-09-15T05:58:03Z</time>
      </trkpt>
      <trkpt lat="44.62578" lon="2.14953">
        <ele>279.5</ele>
      </trkpt>
      <trkpt lat="44.62554" lon="2.14853">
        <ele>275.434</ele>
        <time>2019-03-30T11:01:25Z</time>
      </trkpt>
      <trkpt lat="44.626" lon="2.14732">
        <ele>265.723</ele>
        <time>2016-09-15T05:58:43Z</time>
      </trkpt>
      <trkpt lat="44.62599" lon="2.14525">
        <ele>252.392</ele>
        <time>2019-03-30T11:02:05Z</time>
      </trkpt>
      <trkpt lat="44.62619" lon="2.14375">
        <ele>243.788</ele>
        <time>2019-03-30T11:02:25Z</time>
      </trkpt>
      <trkpt lat="44.62597" lon="2.14275">
        <ele>245.369</ele>
        <time>2019-03-30T11:02:45Z</time>
      </trkpt>
      <trkpt lat="44.62544" lon="2.14175">
        <ele>255.012</ele>
        <time>2019-03-30T11:03:05Z</time>
      </trkpt>
      <trkpt lat="44.6249" lon="2.13842">
        <ele>248.591</ele>
        <time>2016-09-15T06:00:03Z</time>
      </trkpt>
      <trkpt lat="44.62412" lon="2.13614">
        <ele>253.547</ele>
        <time>2016-09-15T06:00:23Z</time>
      </trkpt>
      <trkpt lat="44.6233" lon="2.13356">
        <ele>254.029</ele>
        <time>2021-01-03T00:56:20Z</time>
      </trkpt>
      <trkpt lat="44.62356" lon="2.13018">
        <ele>268.021</ele>
        <time>2021-01-03T00:56:40Z</time>
      </trkpt>
      <trkpt lat="44.62353" lon="2.12701">
        <ele>277.508</ele>
        <time>2021-01-03T00:57:00Z</time>
      </trkpt>
      <trkpt lat="44.62349" lon="2.12654">
        <ele>277.91</ele>
        <time>2021-01-03T00:57:20Z</time>
      </trkpt>
      <trkpt lat="44.62317" lon="2.12673">
        <ele>279.487</ele>
        <time>2021-01-03T00:57:40Z</time>
      </trkpt>
      <trkpt lat="44.62294" lon="2.12698">
        <ele>278.966</ele>
        <time>2021-01-03T00:58:00Z</time>
      </trkpt>
      <trkpt lat="44.62127" lon="2.12708">
        <ele>267.165</ele>
        <time>2021-01-03T00:58:20Z</time>
      </trkpt>
      <trkpt lat="44.62064" lon="2.12675">
        <ele>275.651</ele>
        <time>2021-01-03T00:58:40Z</time>
      </trkpt>
      <trkpt lat="44.62041" lon="2.12664">
        <ele>271.3</ele>
      </trkpt>
      <trkpt lat="44.62017" lon="2.12667">
        <ele>273.8</ele>
        <time>2021-01-03T00:59:00Z</time>
      </trkpt>
      <trkpt lat="44.61992" lon="2.1257">
        <ele>278.6</ele>
      </trkpt>
      <trkpt lat="44.61977" lon="2.12509">
        <ele>284.644</ele>
        <time>2019-03-30T11:08:25Z</time>
      </trkpt>
      <trkpt lat="44.61937" lon="2.12458">
        <ele>285.334</ele>
        <time>2016-09-15T06:05:03Z</time>
      </trkpt>
      <trkpt lat="44.61894" lon="2.12445">
        <ele>286.855</ele>
        <time>2019-03-30T11:09:05Z</time>
      </trkpt>
      <trkpt lat="44.61824" lon="2.12451">
        <ele>287.3</ele>
        <time>2019-03-30T11:09:25Z</time>
      </trkpt>
      <trkpt lat="44.61783" lon="2.12408">
        <ele>287.1</ele>
      </trkpt>
      <trkpt lat="44.61752" lon="2.12355">
        <ele>285.008</ele>
        <time>2016-09-15T06:05:43Z</time>
      </trkpt>
      <trkpt lat="44.61703" lon="2.12339">
        <ele>286.769</ele>
        <time>2019-03-30T11:10:05Z</time>
      </trkpt>
      <trkpt lat="44.61619" lon="2.12256">
        <ele>284.626</ele>
        <time>2021-01-03T01:01:40Z</time>
      </trkpt>
      <trkpt lat="44.61548" lon="2.12142">
        <ele>278.285</ele>
        <time>2021-01-03T01:02:00Z</time>
      </trkpt>
      <trkpt lat="44.6152" lon="2.11932">
        <ele>286.614</ele>
        <time>2021-01-03T01:02:20Z</time>
      </trkpt>
      <trkpt lat="44.61506" lon="2.11888">
        <ele>289.86</ele>
        <time>2021-01-03T01:02:40Z</time>
      </trkpt>
      <trkpt lat="44.61462" lon="2.11883">
        <ele>289.031</ele>
        <time>2021-01-03T01:03:00Z</time>
      </trkpt>
      <trkpt lat="44.61385" lon="2.11838">
        <ele>281.154</ele>
        <time>2021-01-03T01:03:20Z</time>
      </trkpt>
      <trkpt lat="44.61347" lon="2.11834">
        <ele>282.053</ele>
        <time>2021-01-03T01:03:40Z</time>
      </trkpt>
      <trkpt lat="44.61247" lon="2.11968">
        <ele>272.222</ele>
        <time>2021-01-03T01:04:00Z</time>
      </trkpt>
      <trkpt lat="44.6122" lon="2.11958">
        <ele>273.662</ele>
        <time>2021-01-03T01:04:20Z</time>
      </trkpt>
      <trkpt lat="44.61174" lon="2.11984">
        <ele>276.908</ele>
        <time>2021-01-03T01:04:40Z</time>
      </trkpt>
      <trkpt lat="44.61141" lon="2.11899">
        <ele>276.9</ele>
      </trkpt>
      <trkpt lat="44.61119" lon="2.11802">
        <ele>282.708</ele>
        <time>2021-01-03T01:05:00Z</time>
      </trkpt>
      <trkpt lat="44.6108" lon="2.1179">
        <ele>280.1</ele>
      </trkpt>
      <trkpt lat="44.61038" lon="2.11821">
        <ele>282.8</ele>
      </trkpt>
      <trkpt lat="44.60976" lon="2.11847">
        <ele>292.1</ele>
        <time>2021-01-03T01:05:20Z</time>
      </trkpt>
      <trkpt lat="44.60955" lon="2.1175">
        <ele>296.915</ele>
        <time>2021-01-03T01:05:40Z</time>
      </trkpt>
      <trkpt lat="44.60961" lon="2.1168">
        <ele>291.084</ele>
        <time>2021-01-03T01:06:00Z</time>
      </trkpt>
      <trkpt lat="44.60993" lon="2.11594">
        <ele>288.263</ele>
        <time>2021-01-03T01:06:20Z</time>
      </trkpt>
      <trkpt lat="44.61035" lon="2.11527">
        <ele>292.269</ele>
        <time>2021-01-03T01:06:40Z</time>
      </trkpt>
      <trkpt lat="44.61021" lon="2.11485">
        <ele>290.4</ele>
      </trkpt>
      <trkpt lat="44.61021" lon="2.11433">
        <ele>291</ele>
      </trkpt>
      <trkpt lat="44.61112" lon="2.11402">
        <ele>297.6</ele>
        <time>2021-01-03T01:07:00Z</time>
      </trkpt>
      <trkpt lat="44.61188" lon="2.11308">
        <ele>309.153</ele>
        <time>2016-09-15T06:10:23Z</time>
      </trkpt>
      <trkpt lat="44.61222" lon="2.11231">
        <ele>311.772</ele>
        <time>2016-09-15T06:10:43Z</time>
      </trkpt>
      <trkpt lat="44.61304" lon="2.11203">
        <ele>316.127</ele>
        <time>2016-09-15T06:11:03Z</time>
      </trkpt>
      <trkpt lat="44.61662" lon="2.10956">
        <ele>340.868</ele>
        <time>2016-09-15T06:11:23Z</time>
      </trkpt>
      <trkpt lat="44.61734" lon="2.10829">
        <ele>342.514</ele>
        <time>2019-03-30T11:16:45Z</time>
      </trkpt>
      <trkpt lat="44.61885" lon="2.10831">
        <ele>340.908</ele>
        <time>2016-09-15T06:12:23Z</time>
      </trkpt>
      <trkpt lat="44.61996" lon="2.10765">
        <ele>342.728</ele>
        <time>2016-09-15T06:12:43Z</time>
      </trkpt>
      <trkpt lat="44.61983" lon="2.10703">
        <ele>345.995</ele>
        <time>2016-09-15T06:13:03Z</time>
      </trkpt>
      <trkpt lat="44.61921" lon="2.10559">
        <ele>348.134</ele>
        <time>2016-09-15T06:13:23Z</time>
      </trkpt>
      <trkpt lat="44.61841" lon="2.10456">
        <ele>340.983</ele>
        <time>2016-09-15T06:13:43Z</time>
      </trkpt>
      <trkpt lat="44.61786" lon="2.10211">
        <ele>342.069</ele>
        <time>2016-09-15T06:14:03Z</time>
      </trkpt>
      <trkpt lat="44.61706" lon="2.09982">
        <ele>344.37</ele>
        <time>2016-09-15T06:14:23Z</time>
      </trkpt>
      <trkpt lat="44.6161" lon="2.09821">
        <ele>346.633</ele>
        <time>2016-09-15T06:14:43Z</time>
      </trkpt>
      <trkpt lat="44.61471" lon="2.09624">
        <ele>361.612</ele>
        <time>2019-03-30T11:19:45Z</time>
      </trkpt>
      <trkpt lat="44.61521" lon="2.09007">
        <ele>376.556</ele>
        <time>2019-03-30T11:20:05Z</time>
      </trkpt>
      <trkpt lat="44.61417" lon="2.08851">
        <ele>382.359</ele>
        <time>2016-09-15T06:15:43Z</time>
      </trkpt>
      <trkpt lat="44.61391" lon="2.08694">
        <ele>382.914</ele>
        <time>2016-09-15T06:16:03Z</time>
      </trkpt>
      <trkpt lat="44.61313" lon="2.08741">
        <ele>378.108</ele>
        <time>2019-03-30T11:21:05Z</time>
      </trkpt>
      <trkpt lat="44.61297" lon="2.08701">
        <ele>379.651</ele>
        <time>2019-03-30T11:21:25Z</time>
      </trkpt>
      <trkpt lat="44.61154" lon="2.08675">
        <ele>372.868</ele>
        <time>2019-03-30T11:21:45Z</time>
      </trkpt>
      <trkpt lat="44.6122" lon="2.08555">
        <ele>377.997</ele>
        <time>2016-09-15T06:17:23Z</time>
      </trkpt>
      <trkpt lat="44.61187" lon="2.08473">
        <ele>380.486</ele>
        <time>2016-09-15T06:17:43Z</time>
      </trkpt>
      <trkpt lat="44.61197" lon="2.08336">
        <ele>376.922</ele>
        <time>2016-09-15T06:18:03Z</time>
      </trkpt>
      <trkpt lat="44.61231" lon="2.08169">
        <ele>375.673</ele>
        <time>2016-09-15T06:18:23Z</time>
      </trkpt>
      <trkpt lat="44.6119" lon="2.08076">
        <ele>373.316</ele>
        <time>2016-09-15T06:18:43Z</time>
      </trkpt>
      <trkpt lat="44.6114" lon="2.08014">
        <ele>374.975</ele>
        <time>2019-03-30T11:23:45Z</time>
      </trkpt>
      <trkpt lat="44.61126" lon="2.07941">
        <ele>377.699</ele>
        <time>2021-01-03T01:16:00Z</time>
      </trkpt>
      <trkpt lat="44.61249" lon="2.0792">
        <ele>379.807</ele>
        <time>2021-01-03T01:16:20Z</time>
      </trkpt>
      <trkpt lat="44.61167" lon="2.07826">
        <ele>379.027</ele>
        <time>2021-01-03T01:16:40Z</time>
      </trkpt>
      <trkpt lat="44.61035" lon="2.07622">
        <ele>375.908</ele>
        <time>2021-01-03T01:17:00Z</time>
      </trkpt>
      <trkpt lat="44.61038" lon="2.07513">
        <ele>370.765</ele>
        <time>2021-01-03T01:17:20Z</time>
      </trkpt>
      <trkpt lat="44.61002" lon="2.07251">
        <ele>362.182</ele>
        <time>2021-01-03T01:17:40Z</time>
      </trkpt>
      <trkpt lat="44.61054" lon="2.07129">
        <ele>362.731</ele>
        <time>2021-01-03T01:18:00Z</time>
      </trkpt>
      <trkpt lat="44.61097" lon="2.06492">
        <ele>327.42</ele>
        <time>2021-01-03T01:18:20Z</time>
      </trkpt>
      <trkpt lat="44.61038" lon="2.06131">
        <ele>308.426</ele>
        <time>2021-01-03T01:18:40Z</time>
      </trkpt>
      <trkpt lat="44.61071" lon="2.05837">
        <ele>296.427</ele>
        <time>2021-01-03T01:19:00Z</time>
      </trkpt>
      <trkpt lat="44.6104" lon="2.05676">
        <ele>277.29</ele>
        <time>2021-01-03T01:19:20Z</time>
      </trkpt>
      <trkpt lat="44.61043" lon="2.05584">
        <ele>273.269</ele>
        <time>2021-01-03T01:19:40Z</time>
      </trkpt>
      <trkpt lat="44.60986" lon="2.05333">
        <ele>238.425</ele>
        <time>2021-01-03T01:20:00Z</time>
      </trkpt>
      <trkpt lat="44.60994" lon="2.05262">
        <ele>229.426</ele>
        <time>2021-01-03T01:20:20Z</time>
      </trkpt>
      <trkpt lat="44.60976" lon="2.0517">
        <ele>216.008</ele>
        <time>2021-01-03T01:20:40Z</time>
      </trkpt>
      <trkpt lat="44.60994" lon="2.05083">
        <ele>207.708</ele>
        <time>2021-01-03T01:21:00Z</time>
      </trkpt>
      <trkpt lat="44.60951" lon="2.05101">
        <ele>207.588</ele>
        <time>2021-01-03T01:21:20Z</time>
      </trkpt>
      <trkpt lat="44.60917" lon="2.05062">
        <ele>205.875</ele>
        <time>2021-01-03T01:21:40Z</time>
      </trkpt>
      <trkpt lat="44.60915" lon="2.05002">
        <ele>204.374</ele>
        <time>2021-01-03T01:22:00Z</time>
      </trkpt>
      <trkpt lat="44.60896" lon="2.04984">
        <ele>203.543</ele>
        <time>2021-01-03T01:22:20Z</time>
      </trkpt>
      <trkpt lat="44.60879" lon="2.04931">
        <ele>200.419</ele>
        <time>2021-01-03T01:22:40Z</time>
      </trkpt>
      <trkpt lat="44.60792" lon="2.04779">
        <ele>205.44</ele>
        <time>2021-01-03T01:23:00Z</time>
      </trkpt>
      <trkpt lat="44.60766" lon="2.04666">
        <ele>206.233</ele>
        <time>2021-01-03T01:23:20Z</time>
      </trkpt>
      <trkpt lat="44.6075" lon="2.04478">
        <ele>204.552</ele>
        <time>2021-01-03T01:23:40Z</time>
      </trkpt>
      <trkpt lat="44.60706" lon="2.04282">
        <ele>206.558</ele>
        <time>2021-01-03T01:24:00Z</time>
      </trkpt>
      <trkpt lat="44.6071" lon="2.04232">
        <ele>204.752</ele>
        <time>2021-01-03T01:24:20Z</time>
      </trkpt>
      <trkpt lat="44.60625" lon="2.03406">
        <ele>200.817</ele>
        <time>2021-01-03T01:24:40Z</time>
      </trkpt>
      <trkpt lat="44.60706" lon="2.03382">
        <ele>200.408</ele>
        <time>2016-09-15T06:33:23Z</time>
      </trkpt>
      <trkpt lat="44.60756" lon="2.03371">
        <ele>194.1</ele>
      </trkpt>
      <trkpt lat="44.60813" lon="2.03377">
        <ele>195</ele>
      </trkpt>
      <trkpt lat="44.60855" lon="2.0339">
        <ele>195</ele>
      </trkpt>
      <trkpt lat="44.60852" lon="2.03264">
        <ele>195.3</ele>
      </trkpt>
      <trkpt lat="44.60722" lon="2.03237">
        <ele>194.9</ele>
      </trkpt>
      <trkpt lat="44.6074" lon="2.03103">
        <ele>192.641</ele>
        <time>2021-01-03T01:25:20Z</time>
      </trkpt>
      <trkpt lat="44.60688" lon="2.03089">
        <ele>193.118</ele>
        <time>2021-01-03T01:25:40Z</time>
      </trkpt>
      <trkpt lat="44.6068" lon="2.03125">
        <ele>194.877</ele>
        <time>2021-01-03T01:26:00Z</time>
      </trkpt>
      <trkpt lat="44.60602" lon="2.03097">
        <ele>202.296</ele>
        <time>2016-09-15T06:34:43Z</time>
      </trkpt>
      <trkpt lat="44.60598" lon="2.02987">
        <ele>203.252</ele>
        <time>2021-01-03T01:26:40Z</time>
      </trkpt>
      <trkpt lat="44.60573" lon="2.02983">
        <ele>207.913</ele>
        <time>2021-01-03T01:27:00Z</time>
      </trkpt>
      <trkpt lat="44.6058" lon="2.02776">
        <ele>204.866</ele>
        <time>2021-01-03T01:27:20Z</time>
      </trkpt>
      <trkpt lat="44.6057" lon="2.02586">
        <ele>208.985</ele>
        <time>2021-01-03T01:27:40Z</time>
      </trkpt>
      <trkpt lat="44.60532" lon="2.02357">
        <ele>203.985</ele>
        <time>2021-01-03T01:28:00Z</time>
      </trkpt>
      <trkpt lat="44.60486" lon="2.02219">
        <ele>207.089</ele>
        <time>2021-01-03T01:28:20Z</time>
      </trkpt>
      <trkpt lat="44.60405" lon="2.0205">
        <ele>200.917</ele>
        <time>2021-01-03T01:28:40Z</time>
      </trkpt>
      <trkpt lat="44.60323" lon="2.01901">
        <ele>194.408</ele>
        <time>2021-01-03T01:29:00Z</time>
      </trkpt>
      <trkpt lat="44.60267" lon="2.01904">
        <ele>196.834</ele>
        <time>2021-01-03T01:29:20Z</time>
      </trkpt>
      <trkpt lat="44.60238" lon="2.01949">
        <ele>206.821</ele>
        <time>2021-01-03T01:29:40Z</time>
      </trkpt>
      <trkpt lat="44.60201" lon="2.02024">
        <ele>215.94</ele>
        <time>2021-01-03T01:30:00Z</time>
      </trkpt>
      <trkpt lat="44.60159" lon="2.02007">
        <ele>223.989</ele>
        <time>2021-01-03T01:30:20Z</time>
      </trkpt>
      <trkpt lat="44.6011" lon="2.02042">
        <ele>235.175</ele>
        <time>2021-01-03T01:30:40Z</time>
      </trkpt>
      <trkpt lat="44.60074" lon="2.02092">
        <ele>238.236</ele>
        <time>2021-01-03T01:31:00Z</time>
      </trkpt>
      <trkpt lat="44.59956" lon="2.02153">
        <ele>258.999</ele>
        <time>2021-01-03T01:31:20Z</time>
      </trkpt>
      <trkpt lat="44.59814" lon="2.0215">
        <ele>288.248</ele>
        <time>2021-01-03T01:31:40Z</time>
      </trkpt>
      <trkpt lat="44.59708" lon="2.02111">
        <ele>305.632</ele>
        <time>2021-01-03T01:32:00Z</time>
      </trkpt>
      <trkpt lat="44.59651" lon="2.02036">
        <ele>311.992</ele>
        <time>2021-01-03T01:32:20Z</time>
      </trkpt>
      <trkpt lat="44.59612" lon="2.02014">
        <ele>314.911</ele>
        <time>2021-01-03T01:32:40Z</time>
      </trkpt>
      <trkpt lat="44.59501" lon="2.01853">
        <ele>329.708</ele>
        <time>2021-01-03T01:33:00Z</time>
      </trkpt>
      <trkpt lat="44.59431" lon="2.01878">
        <ele>332.129</ele>
        <time>2021-01-03T01:33:20Z</time>
      </trkpt>
      <trkpt lat="44.59382" lon="2.01881">
        <ele>335.166</ele>
        <time>2021-01-03T01:33:40Z</time>
      </trkpt>
      <trkpt lat="44.59305" lon="2.01915">
        <ele>345.795</ele>
        <time>2021-01-03T01:34:00Z</time>
      </trkpt>
      <trkpt lat="44.59222" lon="2.0194">
        <ele>347.964</ele>
        <time>2021-01-03T01:34:20Z</time>
      </trkpt>
      <trkpt lat="44.5913" lon="2.01915">
        <ele>348.76</ele>
        <time>2021-01-03T01:34:40Z</time>
      </trkpt>
      <trkpt lat="44.58992" lon="2.01836">
        <ele>345.931</ele>
        <time>2019-03-30T11:55:05Z</time>
      </trkpt>
      <trkpt lat="44.58932" lon="2.01788">
        <ele>344.774</ele>
        <time>2019-03-30T11:55:25Z</time>
      </trkpt>
      <trkpt lat="44.58682" lon="2.01672">
        <ele>348.433</ele>
        <time>2019-03-30T11:55:45Z</time>
      </trkpt>
      <trkpt lat="44.58578" lon="2.01506">
        <ele>345.222</ele>
        <time>2019-03-30T11:56:05Z</time>
      </trkpt>
      <trkpt lat="44.58439" lon="2.01356">
        <ele>323.462</ele>
        <time>2019-03-30T11:56:25Z</time>
      </trkpt>
      <trkpt lat="44.5843" lon="2.01277">
        <ele>315.008</ele>
        <time>2019-03-30T11:56:45Z</time>
      </trkpt>
      <trkpt lat="44.58383" lon="2.01211">
        <ele>311.008</ele>
        <time>2019-03-30T11:57:05Z</time>
      </trkpt>
      <trkpt lat="44.58219" lon="2.01099">
        <ele>316.868</ele>
        <time>2019-03-30T11:57:25Z</time>
      </trkpt>
      <trkpt lat="44.58106" lon="2.01059">
        <ele>316.265</ele>
        <time>2016-09-15T06:53:03Z</time>
      </trkpt>
      <trkpt lat="44.58017" lon="2.01015">
        <ele>325.924</ele>
        <time>2019-03-30T11:58:05Z</time>
      </trkpt>
      <trkpt lat="44.5795" lon="2.00935">
        <ele>328.233</ele>
        <time>2019-03-30T11:58:25Z</time>
      </trkpt>
      <trkpt lat="44.57892" lon="2.00817">
        <ele>335.629</ele>
        <time>2019-03-30T11:58:45Z</time>
      </trkpt>
      <trkpt lat="44.57892" lon="2.00817">
        <ele>335.629</ele>
        <time>2019-03-30T11:58:45Z</time>
      </trkpt>
      <trkpt lat="44.57731" lon="2.00686">
        <ele>337.3</ele>
        <time>2016-09-15T06:54:23Z</time>
      </trkpt>
      <trkpt lat="44.57673" lon="2.00569">
        <ele>342.193</ele>
        <time>2019-03-30T11:59:25Z</time>
      </trkpt>
      <trkpt lat="44.57616" lon="2.00508">
        <ele>340.7</ele>
        <time>2019-03-30T11:59:45Z</time>
      </trkpt>
      <trkpt lat="44.57586" lon="2.00432">
        <ele>341</ele>
      </trkpt>
      <trkpt lat="44.57566" lon="2.00352">
        <ele>336.985</ele>
        <time>2019-03-30T12:00:05Z</time>
      </trkpt>
      <trkpt lat="44.57516" lon="2.00214">
        <ele>339.689</ele>
        <time>2019-03-30T12:00:25Z</time>
      </trkpt>
      <trkpt lat="44.57511" lon="2.00021">
        <ele>329.917</ele>
        <time>2021-01-03T01:40:40Z</time>
      </trkpt>
      <trkpt lat="44.57539" lon="1.99893">
        <ele>312.508</ele>
        <time>2021-01-03T01:41:00Z</time>
      </trkpt>
      <trkpt lat="44.5762" lon="1.99813">
        <ele>317.454</ele>
        <time>2021-01-03T01:41:20Z</time>
      </trkpt>
      <trkpt lat="44.57631" lon="1.99776">
        <ele>317.071</ele>
        <time>2019-03-30T12:01:45Z</time>
      </trkpt>
      <trkpt lat="44.57564" lon="1.99606">
        <ele>319.53</ele>
        <time>2021-01-03T01:42:00Z</time>
      </trkpt>
      <trkpt lat="44.57534" lon="1.99566">
        <ele>319.8</ele>
        <time>2016-09-15T06:57:23Z</time>
      </trkpt>
      <trkpt lat="44.57514" lon="1.99524">
        <ele>322.9</ele>
        <time>2016-09-15T06:57:43Z</time>
      </trkpt>
      <trkpt lat="44.57428" lon="1.99436">
        <ele>324.6</ele>
      </trkpt>
      <trkpt lat="44.57326" lon="1.99348">
        <ele>325.186</ele>
        <time>2016-09-15T06:58:03Z</time>
      </trkpt>
      <trkpt lat="44.57264" lon="1.99311">
        <ele>325.589</ele>
        <time>2019-03-30T12:03:25Z</time>
      </trkpt>
      <trkpt lat="44.57179" lon="1.99217">
        <ele>326.558</ele>
        <time>2016-09-15T06:58:43Z</time>
      </trkpt>
      <trkpt lat="44.57074" lon="1.99205">
        <ele>334.422</ele>
        <time>2016-09-15T06:59:03Z</time>
      </trkpt>
      <trkpt lat="44.56891" lon="1.9905">
        <ele>328.462</ele>
        <time>2016-09-15T06:59:23Z</time>
      </trkpt>
      <trkpt lat="44.56814" lon="1.99009">
        <ele>316.908</ele>
        <time>2019-03-30T12:04:45Z</time>
      </trkpt>
      <trkpt lat="44.56709" lon="1.98836">
        <ele>316.208</ele>
        <time>2016-09-15T07:00:03Z</time>
      </trkpt>
      <trkpt lat="44.56646" lon="1.98805">
        <ele>316.518</ele>
        <time>2016-09-15T07:00:23Z</time>
      </trkpt>
      <trkpt lat="44.56637" lon="1.98808">
        <ele>317</ele>
      </trkpt>
      <trkpt lat="44.56571" lon="1.98799">
        <ele>315.7</ele>
      </trkpt>
      <trkpt lat="44.56534" lon="1.98801">
        <ele>314.2</ele>
      </trkpt>
      <trkpt lat="44.56523" lon="1.98802">
        <ele>313.7</ele>
      </trkpt>
      <trkpt lat="44.56497" lon="1.98799">
        <ele>313.1</ele>
      </trkpt>
      <trkpt lat="44.56505" lon="1.98771">
        <ele>318.5</ele>
      </trkpt>
      <trkpt lat="44.5651" lon="1.98754">
        <ele>321.5</ele>
      </trkpt>
      <trkpt lat="44.56525" lon="1.98761">
        <ele>322.1</ele>
      </trkpt>
      <trkpt lat="44.56538" lon="1.9871">
        <ele>327.3</ele>
      </trkpt>
      <trkpt lat="44.56548" lon="1.98675">
        <ele>329.4</ele>
      </trkpt>
      <trkpt lat="44.56541" lon="1.9867">
        <ele>329.4</ele>
      </trkpt>
      <trkpt lat="44.56544" lon="1.98655">
        <ele>329.4</ele>
      </trkpt>
      <trkpt lat="44.56539" lon="1.98657">
        <ele>329.2</ele>
      </trkpt>
      <trkpt lat="44.56513" lon="1.98649">
        <ele>324.8</ele>
      </trkpt>
      <trkpt lat="44.56512" lon="1.98639">
        <ele>324</ele>
      </trkpt>
      <trkpt lat="44.56521" lon="1.98593">
        <ele>323.8</ele>
      </trkpt>
      <trkpt lat="44.56522" lon="1.9859">
        <ele>323.7</ele>
        <extensions>
          <visugpx:TrkExtension xmlns:visugpx="https://www.visugpx.com/editgpx/">
            <visugpx:node>1</visugpx:node>
            </visugpx:TrkExtension>
        </extensions>
      </trkpt>
      <trkpt lat="44.5653" lon="1.98515">
        <ele>321.32</ele>
        <time>2019-03-30T12:07:05Z</time>
        <extensions>
          <visugpx:TrkExtension xmlns:visugpx="https://www.visugpx.com/editgpx/">
            <visugpx:node>2</visugpx:node>
            </visugpx:TrkExtension>
        </extensions>
      </trkpt>
      <trkpt lat="44.56496" lon="1.98417">
        <ele>312.793</ele>
        <time>2021-01-03T01:47:20Z</time>
      </trkpt>
      <trkpt lat="44.56488" lon="1.98342">
        <ele>306.932</ele>
        <time>2021-01-03T01:47:40Z</time>
      </trkpt>
      <trkpt lat="44.56513" lon="1.98251">
        <ele>310.187</ele>
        <time>2021-01-03T01:48:00Z</time>
      </trkpt>
      <trkpt lat="44.56524" lon="1.98161">
        <ele>315.742</ele>
        <time>2021-01-03T01:48:20Z</time>
      </trkpt>
      <trkpt lat="44.56513" lon="1.98108">
        <ele>315.326</ele>
        <time>2021-01-03T01:48:40Z</time>
      </trkpt>
      <trkpt lat="44.56478" lon="1.98056">
        <ele>305.408</ele>
        <time>2021-01-03T01:49:00Z</time>
      </trkpt>
      <trkpt lat="44.56431" lon="1.97895">
        <ele>316.524</ele>
        <time>2021-01-03T01:49:20Z</time>
      </trkpt>
      <trkpt lat="44.56405" lon="1.97861">
        <ele>320.121</ele>
        <time>2021-01-03T01:49:40Z</time>
      </trkpt>
      <trkpt lat="44.56367" lon="1.97846">
        <ele>317.42</ele>
        <time>2021-01-03T01:50:00Z</time>
      </trkpt>
      <trkpt lat="44.56302" lon="1.97761">
        <ele>328.799</ele>
        <time>2021-01-03T01:50:20Z</time>
      </trkpt>
      <trkpt lat="44.56233" lon="1.97761">
        <ele>319.535</ele>
        <time>2021-01-03T01:50:40Z</time>
      </trkpt>
      <trkpt lat="44.56174" lon="1.97602">
        <ele>328.956</ele>
        <time>2021-01-03T01:51:00Z</time>
      </trkpt>
      <trkpt lat="44.56189" lon="1.97577">
        <ele>331.549</ele>
        <time>2021-01-03T01:51:20Z</time>
      </trkpt>
      <trkpt lat="44.56148" lon="1.97563">
        <ele>332.578</ele>
        <time>2021-01-03T01:51:40Z</time>
      </trkpt>
      <trkpt lat="44.56127" lon="1.97364">
        <ele>340.339</ele>
        <time>2021-01-03T01:52:00Z</time>
      </trkpt>
      <trkpt lat="44.56132" lon="1.97332">
        <ele>340.601</ele>
        <time>2021-01-03T01:52:20Z</time>
      </trkpt>
      <trkpt lat="44.56156" lon="1.97276">
        <ele>338.721</ele>
        <time>2021-01-03T01:52:40Z</time>
      </trkpt>
      <trkpt lat="44.56168" lon="1.97194">
        <ele>339.908</ele>
        <time>2021-01-03T01:53:00Z</time>
      </trkpt>
      <trkpt lat="44.56169" lon="1.97078">
        <ele>336.659</ele>
        <time>2021-01-03T01:53:20Z</time>
      </trkpt>
      <trkpt lat="44.56146" lon="1.96973">
        <ele>334.216</ele>
        <time>2021-01-03T01:53:40Z</time>
      </trkpt>
      <trkpt lat="44.56152" lon="1.969">
        <ele>333.035</ele>
        <time>2021-01-03T01:54:00Z</time>
      </trkpt>
      <trkpt lat="44.56105" lon="1.96814">
        <ele>337.644</ele>
        <time>2021-01-03T01:54:20Z</time>
      </trkpt>
      <trkpt lat="44.56026" lon="1.96469">
        <ele>345.75</ele>
        <time>2021-01-03T01:54:40Z</time>
      </trkpt>
      <trkpt lat="44.56077" lon="1.96452">
        <ele>343.371</ele>
        <time>2021-01-03T01:55:00Z</time>
      </trkpt>
      <trkpt lat="44.5611" lon="1.96397">
        <ele>340.314</ele>
        <time>2021-01-03T01:55:20Z</time>
      </trkpt>
      <trkpt lat="44.56309" lon="1.96079">
        <ele>334.883</ele>
        <time>2021-01-03T01:55:40Z</time>
      </trkpt>
      <trkpt lat="44.56358" lon="1.95969">
        <ele>334.949</ele>
        <time>2021-01-03T01:56:00Z</time>
      </trkpt>
      <trkpt lat="44.56377" lon="1.95784">
        <ele>330.602</ele>
        <time>2021-01-03T01:56:20Z</time>
      </trkpt>
      <trkpt lat="44.56404" lon="1.95707">
        <ele>333.822</ele>
        <time>2021-01-03T01:56:40Z</time>
      </trkpt>
      <trkpt lat="44.56479" lon="1.95683">
        <ele>332.208</ele>
        <time>2021-01-03T01:57:00Z</time>
      </trkpt>
      <trkpt lat="44.56546" lon="1.95651">
        <ele>331.36</ele>
        <time>2021-01-03T01:57:20Z</time>
      </trkpt>
      <trkpt lat="44.56611" lon="1.9567">
        <ele>331.957</ele>
        <time>2021-01-03T01:57:40Z</time>
      </trkpt>
      <trkpt lat="44.56737" lon="1.95732">
        <ele>328.786</ele>
        <time>2021-01-03T01:58:00Z</time>
      </trkpt>
      <trkpt lat="44.56818" lon="1.95732">
        <ele>330.795</ele>
        <time>2021-01-03T01:58:20Z</time>
      </trkpt>
      <trkpt lat="44.56878" lon="1.95757">
        <ele>331.821</ele>
        <time>2021-01-03T01:58:40Z</time>
      </trkpt>
      <trkpt lat="44.57213" lon="1.95658">
        <ele>316.042</ele>
        <time>2021-01-03T01:59:00Z</time>
      </trkpt>
      <trkpt lat="44.57294" lon="1.95675">
        <ele>320.115</ele>
        <time>2021-01-03T01:59:20Z</time>
      </trkpt>
      <trkpt lat="44.57361" lon="1.95653">
        <ele>324.594</ele>
        <time>2021-01-03T01:59:40Z</time>
      </trkpt>
      <trkpt lat="44.5738" lon="1.95626">
        <ele>324.411</ele>
        <time>2019-03-30T12:12:45Z</time>
      </trkpt>
      <trkpt lat="44.57494" lon="1.95525">
        <ele>312.921</ele>
        <time>2016-09-15T07:08:03Z</time>
      </trkpt>
      <trkpt lat="44.57611" lon="1.95441">
        <ele>310.003</ele>
        <time>2021-01-03T02:00:40Z</time>
      </trkpt>
      <trkpt lat="44.57664" lon="1.95484">
        <ele>314.208</ele>
        <time>2021-01-03T02:01:00Z</time>
      </trkpt>
      <trkpt lat="44.57681" lon="1.95463">
        <ele>314.287</ele>
        <time>2019-03-30T12:14:05Z</time>
      </trkpt>
      <trkpt lat="44.57679" lon="1.95418">
        <ele>312.534</ele>
        <time>2021-01-03T02:01:40Z</time>
      </trkpt>
      <trkpt lat="44.57693" lon="1.9536">
        <ele>310.953</ele>
        <time>2021-01-03T02:02:00Z</time>
      </trkpt>
      <trkpt lat="44.57691" lon="1.95284">
        <ele>309.952</ele>
        <time>2016-09-15T07:09:23Z</time>
      </trkpt>
      <trkpt lat="44.57804" lon="1.95045">
        <ele>312.748</ele>
        <time>2019-03-30T12:14:45Z</time>
      </trkpt>
      <trkpt lat="44.57894" lon="1.94979">
        <ele>316.799</ele>
        <time>2019-03-30T12:15:05Z</time>
      </trkpt>
      <trkpt lat="44.57847" lon="1.94898">
        <ele>327.052</ele>
        <time>2016-09-15T07:11:03Z</time>
      </trkpt>
      <trkpt lat="44.57806" lon="1.94776">
        <ele>336.071</ele>
        <time>2016-09-15T07:11:23Z</time>
      </trkpt>
      <trkpt lat="44.57792" lon="1.94668">
        <ele>335</ele>
      </trkpt>
      <trkpt lat="44.57797" lon="1.94638">
        <ele>336.1</ele>
      </trkpt>
      <trkpt lat="44.5779" lon="1.94583">
        <ele>339</ele>
        <time>2016-09-15T07:11:43Z</time>
      </trkpt>
      <trkpt lat="44.5776" lon="1.94499">
        <ele>336.442</ele>
        <time>2016-09-15T07:12:03Z</time>
      </trkpt>
      <trkpt lat="44.57718" lon="1.94334">
        <ele>335.226</ele>
        <time>2019-03-30T12:16:45Z</time>
      </trkpt>
      <trkpt lat="44.57721" lon="1.94274">
        <ele>334.908</ele>
        <time>2019-03-30T12:17:05Z</time>
      </trkpt>
      <trkpt lat="44.57693" lon="1.94233">
        <ele>332.5</ele>
      </trkpt>
      <trkpt lat="44.57687" lon="1.94202">
        <ele>331.1</ele>
      </trkpt>
      <trkpt lat="44.57653" lon="1.94157">
        <ele>330.1</ele>
      </trkpt>
      <trkpt lat="44.5763" lon="1.94113">
        <ele>329.914</ele>
        <time>2016-09-15T07:13:23Z</time>
      </trkpt>
      <trkpt lat="44.57606" lon="1.94044">
        <ele>323.881</ele>
        <time>2016-09-15T07:13:43Z</time>
      </trkpt>
      <trkpt lat="44.57542" lon="1.93998">
        <ele>314.7</ele>
      </trkpt>
      <trkpt lat="44.57505" lon="1.94009">
        <ele>309</ele>
        <time>2016-09-15T07:14:03Z</time>
      </trkpt>
      <trkpt lat="44.57503" lon="1.93956">
        <ele>302.3</ele>
      </trkpt>
      <trkpt lat="44.57495" lon="1.9393">
        <ele>300.369</ele>
        <time>2019-03-30T12:18:25Z</time>
      </trkpt>
      <trkpt lat="44.57436" lon="1.9382">
        <ele>293</ele>
      </trkpt>
      <trkpt lat="44.57374" lon="1.93718">
        <ele>299.7</ele>
        <time>2016-09-15T07:14:43Z</time>
      </trkpt>
      <trkpt lat="44.57364" lon="1.93689">
        <ele>302.2</ele>
        <time>2016-09-15T07:15:03Z</time>
      </trkpt>
      <trkpt lat="44.57331" lon="1.93686">
        <ele>308.599</ele>
        <time>2016-09-15T07:15:23Z</time>
      </trkpt>
      <trkpt lat="44.57252" lon="1.93565">
        <ele>319.348</ele>
        <time>2019-03-30T12:19:45Z</time>
      </trkpt>
      <trkpt lat="44.57082" lon="1.93485">
        <ele>319.099</ele>
        <time>2019-03-30T12:20:05Z</time>
      </trkpt>
      <trkpt lat="44.57004" lon="1.93497">
        <ele>321.607</ele>
        <time>2019-03-30T12:20:25Z</time>
      </trkpt>
      <trkpt lat="44.56892" lon="1.93417">
        <ele>330.827</ele>
        <time>2016-09-15T07:16:43Z</time>
      </trkpt>
      <trkpt lat="44.56831" lon="1.93407">
        <ele>334.508</ele>
        <time>2016-09-15T07:17:03Z</time>
      </trkpt>
      <trkpt lat="44.56646" lon="1.93271">
        <ele>350.235</ele>
        <time>2019-03-30T12:21:25Z</time>
      </trkpt>
      <trkpt lat="44.56559" lon="1.93274">
        <ele>349.212</ele>
        <time>2016-09-15T07:17:43Z</time>
      </trkpt>
      <trkpt lat="44.56429" lon="1.92877">
        <ele>380.31</ele>
        <time>2019-03-30T12:22:25Z</time>
      </trkpt>
      <trkpt lat="44.56374" lon="1.92815">
        <ele>383.5</ele>
      </trkpt>
      <trkpt lat="44.56319" lon="1.92781">
        <ele>385.156</ele>
        <time>2019-03-30T12:22:45Z</time>
      </trkpt>
      <trkpt lat="44.56138" lon="1.9245">
        <ele>373.167</ele>
        <time>2019-03-30T12:23:05Z</time>
      </trkpt>
      <trkpt lat="44.56118" lon="1.92334">
        <ele>375.21</ele>
        <time>2019-03-30T12:23:25Z</time>
      </trkpt>
      <trkpt lat="44.56063" lon="1.92204">
        <ele>372.449</ele>
        <time>2019-03-30T12:23:45Z</time>
      </trkpt>
      <trkpt lat="44.5603" lon="1.92162">
        <ele>368.357</ele>
        <time>2019-03-30T12:24:05Z</time>
      </trkpt>
      <trkpt lat="44.56008" lon="1.92094">
        <ele>365.4</ele>
        <time>2019-03-30T12:24:25Z</time>
      </trkpt>
      <trkpt lat="44.55997" lon="1.91962">
        <ele>362.42</ele>
        <time>2019-03-30T12:24:45Z</time>
      </trkpt>
      <trkpt lat="44.55966" lon="1.91804">
        <ele>361.608</ele>
        <time>2016-09-15T07:20:23Z</time>
      </trkpt>
      <trkpt lat="44.55926" lon="1.91661">
        <ele>354.881</ele>
        <time>2019-03-30T12:25:25Z</time>
      </trkpt>
      <trkpt lat="44.559" lon="1.9175">
        <ele>356.038</ele>
        <time>2016-09-15T07:21:03Z</time>
      </trkpt>
      <trkpt lat="44.55833" lon="1.91786">
        <ele>358.967</ele>
        <time>2019-03-30T12:26:05Z</time>
      </trkpt>
      <trkpt lat="44.55707" lon="1.918">
        <ele>365.536</ele>
        <time>2019-03-30T12:26:25Z</time>
      </trkpt>
      <trkpt lat="44.55632" lon="1.9169">
        <ele>360.742</ele>
        <time>2019-03-30T12:26:45Z</time>
      </trkpt>
      <trkpt lat="44.556" lon="1.91617">
        <ele>358.163</ele>
        <time>2019-03-30T12:27:05Z</time>
      </trkpt>
      <trkpt lat="44.55455" lon="1.91399">
        <ele>347.066</ele>
        <time>2019-03-30T12:27:25Z</time>
      </trkpt>
      <trkpt lat="44.55408" lon="1.91343">
        <ele>345.045</ele>
        <time>2019-03-30T12:27:45Z</time>
      </trkpt>
      <trkpt lat="44.55356" lon="1.91197">
        <ele>341.019</ele>
        <time>2019-03-30T12:28:05Z</time>
      </trkpt>
      <trkpt lat="44.55341" lon="1.91095">
        <ele>338.409</ele>
        <time>2019-03-30T12:28:25Z</time>
      </trkpt>
      <trkpt lat="44.55344" lon="1.90985">
        <ele>338.919</ele>
        <time>2019-03-30T12:28:45Z</time>
      </trkpt>
      <trkpt lat="44.55305" lon="1.90829">
        <ele>339.308</ele>
        <time>2019-03-30T12:29:05Z</time>
      </trkpt>
      <trkpt lat="44.55127" lon="1.90532">
        <ele>335.037</ele>
        <time>2019-03-30T12:29:25Z</time>
      </trkpt>
      <trkpt lat="44.5501" lon="1.90312">
        <ele>324.674</ele>
        <time>2019-03-30T12:29:45Z</time>
      </trkpt>
      <trkpt lat="44.54921" lon="1.9022">
        <ele>325.383</ele>
        <time>2016-09-15T07:25:23Z</time>
      </trkpt>
      <trkpt lat="44.5486" lon="1.90134">
        <ele>327.992</ele>
        <time>2016-09-15T07:25:43Z</time>
      </trkpt>
      <trkpt lat="44.54784" lon="1.90009">
        <ele>333.3</ele>
        <time>2016-09-15T07:26:03Z</time>
      </trkpt>
      <trkpt lat="44.54761" lon="1.89952">
        <ele>338.159</ele>
        <time>2016-09-15T07:26:23Z</time>
      </trkpt>
      <trkpt lat="44.54667" lon="1.89918">
        <ele>344.962</ele>
        <time>2016-09-15T07:26:43Z</time>
      </trkpt>
      <trkpt lat="44.54588" lon="1.89905">
        <ele>350.031</ele>
        <time>2016-09-15T07:27:03Z</time>
      </trkpt>
      <trkpt lat="44.54528" lon="1.89877">
        <ele>353.783</ele>
        <time>2016-09-15T07:27:23Z</time>
      </trkpt>
      <trkpt lat="44.54314" lon="1.89866">
        <ele>365.625</ele>
        <time>2016-09-15T07:27:43Z</time>
      </trkpt>
      <trkpt lat="44.54343" lon="1.89765">
        <ele>368.717</ele>
        <time>2016-09-15T07:28:03Z</time>
      </trkpt>
      <trkpt lat="44.54339" lon="1.89737">
        <ele>367.408</ele>
        <time>2016-09-15T07:28:23Z</time>
      </trkpt>
      <trkpt lat="44.5429" lon="1.89669">
        <ele>361.684</ele>
        <time>2016-09-15T07:28:43Z</time>
      </trkpt>
      <trkpt lat="44.54279" lon="1.89538">
        <ele>370.241</ele>
        <time>2016-09-15T07:29:03Z</time>
      </trkpt>
      <trkpt lat="44.54204" lon="1.89482">
        <ele>364.37</ele>
        <time>2016-09-15T07:29:23Z</time>
      </trkpt>
      <trkpt lat="44.54181" lon="1.89431">
        <ele>359.039</ele>
        <time>2016-09-15T07:29:43Z</time>
      </trkpt>
      <trkpt lat="44.54173" lon="1.89347">
        <ele>355.075</ele>
        <time>2016-09-15T07:30:03Z</time>
      </trkpt>
      <trkpt lat="44.54121" lon="1.89305">
        <ele>354.846</ele>
        <time>2019-03-30T12:35:05Z</time>
      </trkpt>
      <trkpt lat="44.5394" lon="1.89249">
        <ele>369.249</ele>
        <time>2019-03-30T12:35:25Z</time>
      </trkpt>
      <trkpt lat="44.53837" lon="1.89261">
        <ele>372.2</ele>
        <time>2019-03-30T12:35:45Z</time>
      </trkpt>
      <trkpt lat="44.53841" lon="1.89215">
        <ele>375.492</ele>
        <time>2019-03-30T12:36:05Z</time>
      </trkpt>
      <trkpt lat="44.53733" lon="1.88933">
        <ele>394.673</ele>
        <time>2019-03-30T12:36:25Z</time>
      </trkpt>
      <trkpt lat="44.53771" lon="1.88807">
        <ele>399.52</ele>
        <time>2019-03-30T12:36:45Z</time>
      </trkpt>
      <trkpt lat="44.53794" lon="1.88668">
        <ele>397.608</ele>
        <time>2019-03-30T12:37:05Z</time>
      </trkpt>
      <trkpt lat="44.53744" lon="1.88719">
        <ele>395.625</ele>
        <time>2019-03-30T12:37:25Z</time>
      </trkpt>
      <trkpt lat="44.53693" lon="1.88733">
        <ele>390.752</ele>
        <time>2016-09-15T07:32:43Z</time>
      </trkpt>
      <trkpt lat="44.53702" lon="1.88656">
        <ele>388.231</ele>
        <time>2016-09-15T07:33:03Z</time>
      </trkpt>
      <trkpt lat="44.53665" lon="1.88622">
        <ele>385.49</ele>
        <time>2019-03-30T12:38:25Z</time>
      </trkpt>
      <trkpt lat="44.53638" lon="1.88555">
        <ele>382.086</ele>
        <time>2019-03-30T12:38:45Z</time>
      </trkpt>
      <trkpt lat="44.53667" lon="1.88536">
        <ele>378.257</ele>
        <time>2019-03-30T12:39:05Z</time>
      </trkpt>
      <trkpt lat="44.53696" lon="1.88471">
        <ele>375.29</ele>
        <time>2019-03-30T12:39:25Z</time>
      </trkpt>
      <trkpt lat="44.53728" lon="1.88365">
        <ele>378.059</ele>
        <time>2019-03-30T12:39:45Z</time>
      </trkpt>
      <trkpt lat="44.53718" lon="1.88256">
        <ele>374.734</ele>
        <time>2019-03-30T12:40:05Z</time>
      </trkpt>
      <trkpt lat="44.53734" lon="1.88165">
        <ele>371.155</ele>
        <time>2019-03-30T12:40:25Z</time>
      </trkpt>
      <trkpt lat="44.53842" lon="1.87999">
        <ele>380.21</ele>
        <time>2016-09-15T07:35:03Z</time>
      </trkpt>
      <trkpt lat="44.53858" lon="1.87909">
        <ele>382.408</ele>
        <time>2019-03-30T12:41:05Z</time>
      </trkpt>
      <trkpt lat="44.5384" lon="1.87778">
        <ele>385.589</ele>
        <time>2016-09-15T07:35:43Z</time>
      </trkpt>
      <trkpt lat="44.53772" lon="1.87562">
        <ele>385.886</ele>
        <time>2019-03-30T12:41:45Z</time>
      </trkpt>
      <trkpt lat="44.53748" lon="1.87373">
        <ele>391.535</ele>
        <time>2019-03-30T12:42:05Z</time>
      </trkpt>
      <trkpt lat="44.53698" lon="1.8727">
        <ele>389.024</ele>
        <time>2019-03-30T12:42:25Z</time>
      </trkpt>
      <trkpt lat="44.5364" lon="1.8699">
        <ele>389.03</ele>
        <time>2019-03-30T12:42:45Z</time>
      </trkpt>
      <trkpt lat="44.53597" lon="1.86931">
        <ele>389.591</ele>
        <time>2016-09-15T07:37:23Z</time>
      </trkpt>
      <trkpt lat="44.5356" lon="1.86816">
        <ele>384.554</ele>
        <time>2019-03-30T12:43:25Z</time>
      </trkpt>
      <trkpt lat="44.53545" lon="1.86708">
        <ele>380.153</ele>
        <time>2019-03-30T12:43:45Z</time>
      </trkpt>
      <trkpt lat="44.53476" lon="1.86527">
        <ele>382.562</ele>
        <time>2019-03-30T12:44:05Z</time>
      </trkpt>
      <trkpt lat="44.53274" lon="1.86476">
        <ele>366.283</ele>
        <time>2016-09-15T07:38:43Z</time>
      </trkpt>
      <trkpt lat="44.53169" lon="1.86487">
        <ele>360.211</ele>
        <time>2016-09-15T07:39:03Z</time>
      </trkpt>
      <trkpt lat="44.53032" lon="1.86534">
        <ele>348.908</ele>
        <time>2016-09-15T07:39:23Z</time>
      </trkpt>
      <trkpt lat="44.52945" lon="1.86538">
        <ele>340.472</ele>
        <time>2016-09-15T07:39:43Z</time>
      </trkpt>
      <trkpt lat="44.52858" lon="1.86414">
        <ele>338.839</ele>
        <time>2016-09-15T07:40:03Z</time>
      </trkpt>
      <trkpt lat="44.52656" lon="1.86257">
        <ele>332.568</ele>
        <time>2019-03-30T12:46:05Z</time>
      </trkpt>
      <trkpt lat="44.52563" lon="1.86229">
        <ele>328.117</ele>
        <time>2016-09-15T07:41:03Z</time>
      </trkpt>
      <trkpt lat="44.52448" lon="1.86173">
        <ele>317.373</ele>
        <time>2016-09-15T07:41:23Z</time>
      </trkpt>
      <trkpt lat="44.52274" lon="1.86113">
        <ele>308.254</ele>
        <time>2016-09-15T07:41:43Z</time>
      </trkpt>
      <trkpt lat="44.52212" lon="1.86032">
        <ele>309.117</ele>
        <time>2016-09-15T07:42:03Z</time>
      </trkpt>
      <trkpt lat="44.52099" lon="1.86038">
        <ele>306.566</ele>
        <time>2016-09-15T07:42:23Z</time>
      </trkpt>
      <trkpt lat="44.51975" lon="1.85969">
        <ele>312.875</ele>
        <time>2016-09-15T07:42:43Z</time>
      </trkpt>
      <trkpt lat="44.51896" lon="1.85963">
        <ele>312.028</ele>
        <time>2016-09-15T07:43:03Z</time>
      </trkpt>
      <trkpt lat="44.51825" lon="1.85965">
        <ele>310.02</ele>
        <time>2019-03-30T12:48:45Z</time>
      </trkpt>
      <trkpt lat="44.51642" lon="1.85836">
        <ele>313.108</ele>
        <time>2019-03-30T12:49:05Z</time>
      </trkpt>
      <trkpt lat="44.51646" lon="1.85789">
        <ele>315.283</ele>
        <time>2016-09-15T07:44:03Z</time>
      </trkpt>
      <trkpt lat="44.51642" lon="1.8574">
        <ele>313.87</ele>
        <time>2016-09-15T07:44:23Z</time>
      </trkpt>
      <trkpt lat="44.51659" lon="1.85693">
        <ele>314.859</ele>
        <time>2016-09-15T07:44:43Z</time>
      </trkpt>
      <trkpt lat="44.51646" lon="1.85572">
        <ele>319.428</ele>
        <time>2019-03-30T12:50:25Z</time>
      </trkpt>
      <trkpt lat="44.51698" lon="1.85545">
        <ele>325.344</ele>
        <time>2019-03-30T12:50:45Z</time>
      </trkpt>
      <trkpt lat="44.51713" lon="1.85442">
        <ele>327.235</ele>
        <time>2019-03-30T12:51:05Z</time>
      </trkpt>
      <trkpt lat="44.51709" lon="1.85371">
        <ele>331.248</ele>
        <time>2016-09-15T07:45:43Z</time>
      </trkpt>
      <trkpt lat="44.51827" lon="1.85276">
        <ele>337.747</ele>
        <time>2016-09-15T07:46:03Z</time>
      </trkpt>
      <trkpt lat="44.51886" lon="1.85201">
        <ele>335.022</ele>
        <time>2019-03-30T12:52:05Z</time>
      </trkpt>
      <trkpt lat="44.5194" lon="1.85107">
        <ele>335.362</ele>
        <time>2016-09-15T07:46:23Z</time>
      </trkpt>
      <trkpt lat="44.51998" lon="1.84929">
        <ele>343.608</ele>
        <time>2016-09-15T07:46:43Z</time>
      </trkpt>
      <trkpt lat="44.52006" lon="1.84806">
        <ele>353.508</ele>
        <time>2016-09-15T07:47:03Z</time>
      </trkpt>
      <trkpt lat="44.52141" lon="1.8468">
        <ele>368.348</ele>
        <time>2016-09-15T07:47:23Z</time>
      </trkpt>
      <trkpt lat="44.5205" lon="1.84513">
        <ele>371.265</ele>
        <time>2016-09-15T07:47:43Z</time>
      </trkpt>
      <trkpt lat="44.51998" lon="1.84463">
        <ele>376.244</ele>
        <time>2016-09-15T07:48:03Z</time>
      </trkpt>
      <trkpt lat="44.5192" lon="1.84349">
        <ele>375.073</ele>
        <time>2016-09-15T07:48:23Z</time>
      </trkpt>
      <trkpt lat="44.51832" lon="1.84251">
        <ele>381.159</ele>
        <time>2016-09-15T07:48:43Z</time>
      </trkpt>
      <trkpt lat="44.51639" lon="1.84015">
        <ele>372.11</ele>
        <time>2016-09-15T07:49:03Z</time>
      </trkpt>
      <trkpt lat="44.51639" lon="1.84015">
        <ele>372.11</ele>
        <time>2016-09-15T07:49:03Z</time>
      </trkpt>
      <trkpt lat="44.51623" lon="1.83849">
        <ele>372.433</ele>
        <time>2021-01-03T02:43:20Z</time>
      </trkpt>
      <trkpt lat="44.51584" lon="1.83663">
        <ele>371.862</ele>
        <time>2016-09-15T07:50:03Z</time>
      </trkpt>
      <trkpt lat="44.51576" lon="1.83551">
        <ele>365.666</ele>
        <time>2016-09-15T07:50:23Z</time>
      </trkpt>
      <trkpt lat="44.51461" lon="1.83247">
        <ele>360.429</ele>
        <time>2016-09-15T07:51:43Z</time>
      </trkpt>
      <trkpt lat="44.51388" lon="1.82948">
        <ele>324.221</ele>
        <time>2016-09-15T07:52:03Z</time>
      </trkpt>
      <trkpt lat="44.51353" lon="1.82873">
        <ele>320.108</ele>
        <time>2016-09-15T07:52:23Z</time>
      </trkpt>
      <trkpt lat="44.51307" lon="1.82884">
        <ele>318.652</ele>
        <time>2016-09-15T07:52:43Z</time>
      </trkpt>
      <trkpt lat="44.51226" lon="1.82867">
        <ele>325.489</ele>
        <time>2016-09-15T07:53:03Z</time>
      </trkpt>
      <trkpt lat="44.51177" lon="1.82912">
        <ele>330.588</ele>
        <time>2016-09-15T07:53:23Z</time>
      </trkpt>
      <trkpt lat="44.51131" lon="1.82907">
        <ele>330.677</ele>
        <time>2016-09-15T07:53:43Z</time>
      </trkpt>
      <trkpt lat="44.51034" lon="1.82955">
        <ele>338.653</ele>
        <time>2016-09-15T07:54:03Z</time>
      </trkpt>
      <trkpt lat="44.50913" lon="1.83086">
        <ele>354.164</ele>
        <time>2016-09-15T07:54:23Z</time>
      </trkpt>
      <trkpt lat="44.50823" lon="1.83116">
        <ele>360.227</ele>
        <time>2016-09-15T07:54:43Z</time>
      </trkpt>
      <trkpt lat="44.50788" lon="1.83182">
        <ele>355.026</ele>
        <time>2016-09-15T07:55:03Z</time>
      </trkpt>
      <trkpt lat="44.50483" lon="1.83311">
        <ele>324.826</ele>
        <time>2016-09-15T07:55:23Z</time>
      </trkpt>
      <trkpt lat="44.50437" lon="1.83356">
        <ele>319.247</ele>
        <time>2019-03-30T13:01:45Z</time>
      </trkpt>
      <trkpt lat="44.50164" lon="1.83504">
        <ele>306.411</ele>
        <time>2016-09-15T07:56:23Z</time>
      </trkpt>
      <trkpt lat="44.49841" lon="1.83508">
        <ele>289.608</ele>
        <time>2016-09-15T07:56:43Z</time>
      </trkpt>
      <trkpt lat="44.49766" lon="1.83532">
        <ele>290.218</ele>
        <time>2016-09-15T07:57:03Z</time>
      </trkpt>
      <trkpt lat="44.49706" lon="1.8351">
        <ele>289.665</ele>
        <time>2016-09-15T07:57:23Z</time>
      </trkpt>
      <trkpt lat="44.49646" lon="1.83558">
        <ele>288.954</ele>
        <time>2016-09-15T07:57:43Z</time>
      </trkpt>
      <trkpt lat="44.49617" lon="1.83641">
        <ele>283.543</ele>
        <time>2016-09-15T07:58:03Z</time>
      </trkpt>
      <trkpt lat="44.49571" lon="1.83689">
        <ele>278.649</ele>
        <time>2016-09-15T07:58:23Z</time>
      </trkpt>
      <trkpt lat="44.49509" lon="1.83678">
        <ele>268.76</ele>
        <time>2016-09-15T07:58:43Z</time>
      </trkpt>
      <trkpt lat="44.49427" lon="1.83738">
        <ele>256.863</ele>
        <time>2016-09-15T07:59:03Z</time>
      </trkpt>
      <trkpt lat="44.49378" lon="1.83704">
        <ele>259.652</ele>
        <time>2016-09-15T07:59:23Z</time>
      </trkpt>
      <trkpt lat="44.49323" lon="1.83697">
        <ele>248.019</ele>
        <time>2016-09-15T07:59:43Z</time>
      </trkpt>
      <trkpt lat="44.49288" lon="1.83669">
        <ele>256.009</ele>
        <time>2016-09-15T08:00:03Z</time>
      </trkpt>
      <trkpt lat="44.49222" lon="1.83658">
        <ele>234.719</ele>
        <time>2016-09-15T08:00:23Z</time>
      </trkpt>
      <trkpt lat="44.49173" lon="1.83624">
        <ele>237.408</ele>
        <time>2016-09-15T08:00:43Z</time>
      </trkpt>
      <trkpt lat="44.48951" lon="1.83673">
        <ele>184.997</ele>
        <time>2019-03-30T13:06:45Z</time>
      </trkpt>
      <trkpt lat="44.48907" lon="1.83728">
        <ele>171.184</ele>
        <time>2021-01-03T02:53:40Z</time>
      </trkpt>
      <trkpt lat="44.4889" lon="1.83797">
        <ele>162.933</ele>
        <time>2021-01-03T02:54:00Z</time>
      </trkpt>
      <trkpt lat="44.48851" lon="1.83957">
        <ele>155.822</ele>
        <time>2021-01-03T02:54:20Z</time>
      </trkpt>
      <trkpt lat="44.48817" lon="1.84058">
        <ele>155.678</ele>
        <time>2021-01-03T02:54:40Z</time>
      </trkpt>
      <trkpt lat="44.48796" lon="1.84106">
        <ele>154.859</ele>
        <time>2021-01-03T02:55:00Z</time>
      </trkpt>
      <trkpt lat="44.48746" lon="1.84134">
        <ele>152.972</ele>
        <time>2021-01-03T02:55:20Z</time>
      </trkpt>
      <trkpt lat="44.48699" lon="1.84173">
        <ele>152.941</ele>
        <time>2021-01-03T02:55:40Z</time>
      </trkpt>
      <trkpt lat="44.48675" lon="1.84185">
        <ele>152.727</ele>
        <time>2021-01-03T02:56:00Z</time>
      </trkpt>
      <trkpt lat="44.48659" lon="1.8421">
        <ele>153.268</ele>
        <time>2021-01-03T02:56:20Z</time>
      </trkpt>
      <trkpt lat="44.487" lon="1.84269">
        <ele>150.9</ele>
        <time>2021-01-03T02:56:40Z</time>
      </trkpt>
      <trkpt lat="44.48616" lon="1.84336">
        <ele>150.1</ele>
        <time>2021-01-03T02:57:00Z</time>
      </trkpt>
      <trkpt lat="44.48572" lon="1.84376">
        <ele>150.7</ele>
        <time>2021-01-03T02:57:20Z</time>
      </trkpt>
      <trkpt lat="44.48519" lon="1.84388">
        <ele>151</ele>
        <time>2021-01-03T02:57:40Z</time>
      </trkpt>
      <trkpt lat="44.48481" lon="1.84368">
        <ele>151.2</ele>
        <time>2021-01-03T02:58:00Z</time>
      </trkpt>
      <trkpt lat="44.48475" lon="1.84335">
        <ele>151.1</ele>
      </trkpt>
      <trkpt lat="44.48469" lon="1.84309">
        <ele>154.983</ele>
        <time>2021-01-03T02:59:20Z</time>
      </trkpt>
      <trkpt lat="44.48448" lon="1.84311">
        <ele>154.172</ele>
        <time>2021-01-03T02:59:40Z</time>
      </trkpt>
      <trkpt lat="44.48366" lon="1.84345">
        <ele>152.081</ele>
        <time>2021-01-03T03:00:00Z</time>
      </trkpt>
      <trkpt lat="44.48331" lon="1.84368">
        <ele>151.861</ele>
        <time>2021-01-03T03:00:20Z</time>
      </trkpt>
      <trkpt lat="44.4831" lon="1.84311">
        <ele>152.117</ele>
        <time>2021-01-03T03:00:40Z</time>
      </trkpt>
      <trkpt lat="44.48293" lon="1.84297">
        <ele>151.708</ele>
        <time>2021-01-03T03:01:00Z</time>
      </trkpt>
      <trkpt lat="44.48254" lon="1.84178">
        <ele>148.084</ele>
        <time>2021-01-03T03:01:20Z</time>
      </trkpt>
      <trkpt lat="44.48148" lon="1.84017">
        <ele>148.051</ele>
        <time>2021-01-03T03:01:40Z</time>
      </trkpt>
      <trkpt lat="44.48076" lon="1.83932">
        <ele>148.76</ele>
        <time>2021-01-03T03:02:00Z</time>
      </trkpt>
      <trkpt lat="44.48001" lon="1.83862">
        <ele>148</ele>
      </trkpt>
      <trkpt lat="44.47933" lon="1.83786">
        <ele>148</ele>
        <extensions>
          <visugpx:TrkExtension xmlns:visugpx="https://www.visugpx.com/editgpx/">
            <visugpx:node>3</visugpx:node>
            </visugpx:TrkExtension>
        </extensions>
      </trkpt>
      <trkpt lat="44.4789" lon="1.8374">
        <ele>147.8</ele>
      </trkpt>
      <trkpt lat="44.47788" lon="1.83662">
        <ele>151.4</ele>
      </trkpt>
      <trkpt lat="44.47776" lon="1.83655">
        <ele>154.5</ele>
      </trkpt>
      <trkpt lat="44.47771" lon="1.83654">
        <ele>156.2</ele>
      </trkpt>
      <trkpt lat="44.47754" lon="1.83655">
        <ele>159.1</ele>
      </trkpt>
      <trkpt lat="44.47739" lon="1.83662">
        <ele>155.9</ele>
      </trkpt>
      <trkpt lat="44.47696" lon="1.83687">
        <ele>153.7</ele>
        <extensions>
          <visugpx:TrkExtension xmlns:visugpx="https://www.visugpx.com/editgpx/">
            <visugpx:node>4</visugpx:node>
            </visugpx:TrkExtension>
        </extensions>
      </trkpt>
      <trkpt lat="44.47695" lon="1.83676">
        <ele>159.2</ele>
      </trkpt>
      <trkpt lat="44.47694" lon="1.83668">
        <ele>163.5</ele>
      </trkpt>
      <trkpt lat="44.47697" lon="1.83666">
        <ele>163.5</ele>
        <extensions>
          <visugpx:TrkExtension xmlns:visugpx="https://www.visugpx.com/editgpx/">
            <visugpx:node>5</visugpx:node>
            </visugpx:TrkExtension>
        </extensions>
      </trkpt>
      <trkpt lat="44.47682" lon="1.83642">
        <ele>183.285</ele>
        <time>2019-03-30T13:10:45Z</time>
        <extensions>
          <visugpx:TrkExtension xmlns:visugpx="https://www.visugpx.com/editgpx/">
            <visugpx:node>6</visugpx:node>
            </visugpx:TrkExtension>
        </extensions>
      </trkpt>
      <trkpt lat="44.4759" lon="1.83667">
        <ele>185.542</ele>
        <time>2019-03-30T13:11:05Z</time>
      </trkpt>
      <trkpt lat="44.47515" lon="1.8361">
        <ele>181.821</ele>
        <time>2019-03-30T13:11:25Z</time>
      </trkpt>
      <trkpt lat="44.47462" lon="1.83611">
        <ele>183.21</ele>
        <time>2016-09-15T08:06:03Z</time>
      </trkpt>
      <trkpt lat="44.47269" lon="1.83746">
        <ele>179.756</ele>
        <time>2016-09-15T08:06:23Z</time>
      </trkpt>
      <trkpt lat="44.47126" lon="1.83822">
        <ele>175.187</ele>
        <time>2016-09-15T08:06:43Z</time>
      </trkpt>
      <trkpt lat="44.47004" lon="1.83843">
        <ele>162.61</ele>
        <time>2016-09-15T08:07:03Z</time>
      </trkpt>
      <trkpt lat="44.46875" lon="1.83841">
        <ele>150.949</ele>
        <time>2016-09-15T08:07:23Z</time>
      </trkpt>
      <trkpt lat="44.46808" lon="1.83802">
        <ele>148.122</ele>
        <time>2016-09-15T08:07:43Z</time>
      </trkpt>
      <trkpt lat="44.46819" lon="1.83543">
        <ele>147.862</ele>
        <time>2016-09-15T08:08:03Z</time>
      </trkpt>
      <trkpt lat="44.46835" lon="1.83506">
        <ele>147.008</ele>
        <time>2016-09-15T08:08:23Z</time>
      </trkpt>
      <trkpt lat="44.46865" lon="1.83272">
        <ele>149.008</ele>
        <time>2016-09-15T08:08:43Z</time>
      </trkpt>
      <trkpt lat="44.46854" lon="1.82918">
        <ele>151.958</ele>
        <time>2016-09-15T08:09:03Z</time>
      </trkpt>
      <trkpt lat="44.46842" lon="1.82887">
        <ele>166.375</ele>
        <time>2021-01-03T03:09:40Z</time>
      </trkpt>
      <trkpt lat="44.46862" lon="1.82881">
        <ele>168.224</ele>
        <time>2021-01-03T03:10:00Z</time>
      </trkpt>
      <trkpt lat="44.46907" lon="1.82892">
        <ele>170.833</ele>
        <time>2021-01-03T03:10:20Z</time>
      </trkpt>
      <trkpt lat="44.4696" lon="1.82921">
        <ele>171.129</ele>
        <time>2021-01-03T03:10:40Z</time>
      </trkpt>
      <trkpt lat="44.4709" lon="1.82996">
        <ele>163.79</ele>
        <time>2021-01-03T03:11:00Z</time>
      </trkpt>
      <trkpt lat="44.47185" lon="1.83019">
        <ele>151.383</ele>
        <time>2021-01-03T03:11:20Z</time>
      </trkpt>
      <trkpt lat="44.47216" lon="1.83007">
        <ele>148.042</ele>
        <time>2021-01-03T03:11:40Z</time>
      </trkpt>
      <trkpt lat="44.4729" lon="1.82836">
        <ele>160.277</ele>
        <time>2021-01-03T03:12:00Z</time>
      </trkpt>
      <trkpt lat="44.47249" lon="1.82844">
        <ele>168.161</ele>
        <time>2021-01-03T03:12:20Z</time>
      </trkpt>
      <trkpt lat="44.47196" lon="1.82873">
        <ele>169.727</ele>
        <time>2021-01-03T03:12:40Z</time>
      </trkpt>
      <trkpt lat="44.47141" lon="1.82878">
        <ele>178.608</ele>
        <time>2021-01-03T03:13:00Z</time>
      </trkpt>
      <trkpt lat="44.47116" lon="1.82911">
        <ele>178.743</ele>
        <time>2021-01-03T03:13:20Z</time>
      </trkpt>
      <trkpt lat="44.47089" lon="1.82917">
        <ele>177.41</ele>
        <time>2021-01-03T03:13:40Z</time>
      </trkpt>
      <trkpt lat="44.4702" lon="1.82855">
        <ele>188.089</ele>
        <time>2021-01-03T03:14:00Z</time>
      </trkpt>
      <trkpt lat="44.4699" lon="1.82845">
        <ele>187.518</ele>
        <time>2021-01-03T03:14:20Z</time>
      </trkpt>
      <trkpt lat="44.46927" lon="1.82844">
        <ele>179.614</ele>
        <time>2021-01-03T03:14:40Z</time>
      </trkpt>
      <trkpt lat="44.46884" lon="1.82832">
        <ele>179.315</ele>
        <time>2021-01-03T03:15:00Z</time>
      </trkpt>
      <trkpt lat="44.46806" lon="1.82839">
        <ele>175.888</ele>
        <time>2021-01-03T03:15:20Z</time>
      </trkpt>
      <trkpt lat="44.4675" lon="1.82837">
        <ele>169.187</ele>
        <time>2021-01-03T03:15:40Z</time>
      </trkpt>
      <trkpt lat="44.46715" lon="1.82842">
        <ele>170.117</ele>
        <time>2021-01-03T03:16:00Z</time>
      </trkpt>
      <trkpt lat="44.46669" lon="1.82843">
        <ele>172.087</ele>
        <time>2021-01-03T03:16:20Z</time>
      </trkpt>
      <trkpt lat="44.46652" lon="1.82839">
        <ele>171.415</ele>
        <time>2021-01-03T03:16:40Z</time>
      </trkpt>
      <trkpt lat="44.46616" lon="1.82851">
        <ele>168.908</ele>
        <time>2021-01-03T03:17:00Z</time>
      </trkpt>
      <trkpt lat="44.46567" lon="1.82772">
        <ele>172.987</ele>
        <time>2021-01-03T03:17:20Z</time>
      </trkpt>
      <trkpt lat="44.46584" lon="1.82851">
        <ele>170.874</ele>
        <time>2021-01-03T03:17:40Z</time>
      </trkpt>
      <trkpt lat="44.46552" lon="1.82837">
        <ele>178.513</ele>
        <time>2021-01-03T03:18:00Z</time>
      </trkpt>
      <trkpt lat="44.46524" lon="1.82783">
        <ele>182.322</ele>
        <time>2021-01-03T03:18:20Z</time>
      </trkpt>
      <trkpt lat="44.46483" lon="1.82721">
        <ele>184.058</ele>
        <time>2021-01-03T03:18:40Z</time>
      </trkpt>
      <trkpt lat="44.46402" lon="1.82622">
        <ele>180.219</ele>
        <time>2021-01-03T03:19:00Z</time>
      </trkpt>
      <trkpt lat="44.46286" lon="1.82547">
        <ele>193.562</ele>
        <time>2016-09-15T08:11:23Z</time>
      </trkpt>
      <trkpt lat="44.46232" lon="1.82481">
        <ele>195.8</ele>
        <time>2016-09-15T08:11:43Z</time>
      </trkpt>
      <trkpt lat="44.46206" lon="1.82454">
        <ele>197.8</ele>
      </trkpt>
      <trkpt lat="44.46139" lon="1.82435">
        <ele>208.833</ele>
        <time>2016-09-15T08:12:03Z</time>
      </trkpt>
      <trkpt lat="44.4609" lon="1.8236">
        <ele>212.623</ele>
        <time>2016-09-15T08:12:23Z</time>
      </trkpt>
      <trkpt lat="44.46027" lon="1.82227">
        <ele>222.715</ele>
        <time>2016-09-15T08:12:43Z</time>
      </trkpt>
      <trkpt lat="44.45949" lon="1.82242">
        <ele>234.508</ele>
        <time>2016-09-15T08:13:03Z</time>
      </trkpt>
      <trkpt lat="44.45873" lon="1.8229">
        <ele>239.8</ele>
      </trkpt>
      <trkpt lat="44.45802" lon="1.82362">
        <ele>250.589</ele>
        <time>2016-09-15T08:13:23Z</time>
      </trkpt>
      <trkpt lat="44.4576" lon="1.82283">
        <ele>249.316</ele>
        <time>2016-09-15T08:13:43Z</time>
      </trkpt>
      <trkpt lat="44.4574" lon="1.82289">
        <ele>251.1</ele>
        <time>2016-09-15T08:14:03Z</time>
      </trkpt>
      <trkpt lat="44.45704" lon="1.82405">
        <ele>263.234</ele>
        <time>2016-09-15T08:14:23Z</time>
      </trkpt>
      <trkpt lat="44.45638" lon="1.82478">
        <ele>271.01</ele>
        <time>2016-09-15T08:14:43Z</time>
      </trkpt>
      <trkpt lat="44.45619" lon="1.82496">
        <ele>271</ele>
      </trkpt>
      <trkpt lat="44.45598" lon="1.82543">
        <ele>281.951</ele>
        <time>2016-09-15T08:15:03Z</time>
      </trkpt>
      <trkpt lat="44.45503" lon="1.82564">
        <ele>291.254</ele>
        <time>2016-09-15T08:15:23Z</time>
      </trkpt>
      <trkpt lat="44.45428" lon="1.82646">
        <ele>298.933</ele>
        <time>2016-09-15T08:15:43Z</time>
      </trkpt>
      <trkpt lat="44.45319" lon="1.82865">
        <ele>312.311</ele>
        <time>2016-09-15T08:16:03Z</time>
      </trkpt>
      <trkpt lat="44.45218" lon="1.82924">
        <ele>325.121</ele>
        <time>2019-03-30T13:22:05Z</time>
      </trkpt>
      <trkpt lat="44.45058" lon="1.82885">
        <ele>344.403</ele>
        <time>2019-03-30T13:22:25Z</time>
      </trkpt>
      <trkpt lat="44.44772" lon="1.82963">
        <ele>344.708</ele>
        <time>2016-09-15T08:17:23Z</time>
      </trkpt>
      <trkpt lat="44.44604" lon="1.82905">
        <ele>339.477</ele>
        <time>2016-09-15T08:17:43Z</time>
      </trkpt>
      <trkpt lat="44.44533" lon="1.82892">
        <ele>333.494</ele>
        <time>2016-09-15T08:18:03Z</time>
        <extensions>
          <visugpx:TrkExtension xmlns:visugpx="https://www.visugpx.com/editgpx/">
            <visugpx:node>7</visugpx:node>
            </visugpx:TrkExtension>
        </extensions>
      </trkpt>
    </trkseg>
  </trk>
</gpx>